<?xml version="1.0" encoding="UTF-8" standalone="no" ?>
<gpx xmlns="http://www.topografix.com/GPX/1/1" xmlns:xsi="http://www.w3.org/2001/XMLSchema-instance" xsi:schemaLocation="http://www.topografix.com/GPX/1/1 http://www.topografix.com/GPX/1/1/gpx.xsd" version="1.1" creator="VisuGPX - https://www.visugpx.com">
  <metadata>
    <name>Grand Arc</name>
    <desc><![CDATA[Pertit et Grand arc en boucle depuis Montsapey. Fort dénivelé]]></desc>
  </metadata>
  <trk>
    <name><![CDATA[petit et grand arc]]></name>
    <desc><![CDATA[<h1>OruxMaps</h1><br /><hr align="center" width="480" style="height: 2px; width: 517px"/><h2>Nom: petit et grand arc</h2><br /><p>Temps de départ: 06/06/2015 09:24</p><p>Temps d'arrivée: 06/06/2015 18:04</p><p>Distance: 21,5km (08:39)</p><p>Temps déplacement: 06:38</p><p>Vitesse moyenne: 2,5km/h</p><p>Vitesse moyenne: 3,2km/h</p><p>Vitess Max.: 8,7km/h</p><p>Altitude minimale: 959m</p><p>Altitude maximale: 2489m</p><p>Vitesse d'élévation: 405,2m/h</p><p>Vitesse de descente: -579,4m/h</p><p>Gain Altitude: 1994m</p><p>Perte Altitude: -2015m</p><p>Temps d'élévation: 04:55</p><p>Temps de descente: 03:28</p><hr align="center" width="480" style="height: 2px; width: 517px"/>]]></desc>
    <trkseg>
      <trkpt lat="45.5224" lon="6.33337">
        <ele>992.28</ele>
        <time>2015-06-06T07:24:48Z</time>
      </trkpt>
      <trkpt lat="45.52258" lon="6.33328">
        <ele>987.48</ele>
        <time>2015-06-06T07:26:03Z</time>
      </trkpt>
      <trkpt lat="45.52263" lon="6.33303">
        <ele>988.3</ele>
        <time>2015-06-06T07:26:22Z</time>
      </trkpt>
      <trkpt lat="45.52265" lon="6.33278">
        <ele>987.65</ele>
        <time>2015-06-06T07:26:39Z</time>
      </trkpt>
      <trkpt lat="45.52264" lon="6.33251">
        <ele>974.74</ele>
        <time>2015-06-06T07:26:57Z</time>
      </trkpt>
      <trkpt lat="45.52263" lon="6.33225">
        <ele>971.61</ele>
        <time>2015-06-06T07:27:11Z</time>
      </trkpt>
      <trkpt lat="45.52253" lon="6.33202">
        <ele>969.45</ele>
        <time>2015-06-06T07:27:24Z</time>
      </trkpt>
      <trkpt lat="45.52242" lon="6.33171">
        <ele>967.28</ele>
        <time>2015-06-06T07:27:41Z</time>
      </trkpt>
      <trkpt lat="45.52231" lon="6.33149">
        <ele>966.46</ele>
        <time>2015-06-06T07:27:57Z</time>
      </trkpt>
      <trkpt lat="45.52227" lon="6.33123">
        <ele>966.91</ele>
        <time>2015-06-06T07:28:24Z</time>
      </trkpt>
      <trkpt lat="45.52228" lon="6.33097">
        <ele>964.41</ele>
        <time>2015-06-06T07:29:00Z</time>
      </trkpt>
      <trkpt lat="45.52223" lon="6.33071">
        <ele>959.59</ele>
        <time>2015-06-06T07:29:15Z</time>
      </trkpt>
      <trkpt lat="45.52241" lon="6.33073">
        <ele>968.53</ele>
        <time>2015-06-06T07:30:35Z</time>
      </trkpt>
      <trkpt lat="45.52254" lon="6.33092">
        <ele>975.28</ele>
        <time>2015-06-06T07:31:32Z</time>
      </trkpt>
      <trkpt lat="45.52265" lon="6.33113">
        <ele>983.14</ele>
        <time>2015-06-06T07:32:18Z</time>
      </trkpt>
      <trkpt lat="45.52279" lon="6.3313">
        <ele>986.59</ele>
        <time>2015-06-06T07:32:47Z</time>
      </trkpt>
      <trkpt lat="45.52288" lon="6.33153">
        <ele>990.48</ele>
        <time>2015-06-06T07:33:19Z</time>
      </trkpt>
      <trkpt lat="45.523" lon="6.33174">
        <ele>1004.33</ele>
        <time>2015-06-06T07:33:34Z</time>
      </trkpt>
      <trkpt lat="45.52309" lon="6.33197">
        <ele>1001.89</ele>
        <time>2015-06-06T07:33:49Z</time>
      </trkpt>
      <trkpt lat="45.52313" lon="6.33222">
        <ele>1003.87</ele>
        <time>2015-06-06T07:34:08Z</time>
      </trkpt>
      <trkpt lat="45.52323" lon="6.33245">
        <ele>1010.2</ele>
        <time>2015-06-06T07:34:31Z</time>
      </trkpt>
      <trkpt lat="45.52334" lon="6.33266">
        <ele>1006.5</ele>
        <time>2015-06-06T07:34:48Z</time>
      </trkpt>
      <trkpt lat="45.52346" lon="6.33287">
        <ele>1009.55</ele>
        <time>2015-06-06T07:35:18Z</time>
      </trkpt>
      <trkpt lat="45.52359" lon="6.33306">
        <ele>1016.98</ele>
        <time>2015-06-06T07:35:47Z</time>
      </trkpt>
      <trkpt lat="45.52372" lon="6.33324">
        <ele>1023.01</ele>
        <time>2015-06-06T07:36:06Z</time>
      </trkpt>
      <trkpt lat="45.52386" lon="6.3334">
        <ele>1030.05</ele>
        <time>2015-06-06T07:36:29Z</time>
      </trkpt>
      <trkpt lat="45.52402" lon="6.33354">
        <ele>1034.68</ele>
        <time>2015-06-06T07:36:57Z</time>
      </trkpt>
      <trkpt lat="45.52418" lon="6.33365">
        <ele>1040.27</ele>
        <time>2015-06-06T07:37:28Z</time>
      </trkpt>
      <trkpt lat="45.52431" lon="6.33384">
        <ele>1042.12</ele>
        <time>2015-06-06T07:37:49Z</time>
      </trkpt>
      <trkpt lat="45.52447" lon="6.33397">
        <ele>1047.4</ele>
        <time>2015-06-06T07:38:10Z</time>
      </trkpt>
      <trkpt lat="45.52454" lon="6.33401">
        <ele>1054.53</ele>
        <time>2015-06-06T07:38:38Z</time>
      </trkpt>
      <trkpt lat="45.52448" lon="6.33397">
        <ele>1060.53</ele>
        <time>2015-06-06T07:39:14Z</time>
      </trkpt>
      <trkpt lat="45.52463" lon="6.33413">
        <ele>1057.2</ele>
        <time>2015-06-06T07:39:50Z</time>
      </trkpt>
      <trkpt lat="45.52475" lon="6.33432">
        <ele>1057.06</ele>
        <time>2015-06-06T07:40:13Z</time>
      </trkpt>
      <trkpt lat="45.52482" lon="6.33456">
        <ele>1055.57</ele>
        <time>2015-06-06T07:40:46Z</time>
      </trkpt>
      <trkpt lat="45.52494" lon="6.33475">
        <ele>1057.65</ele>
        <time>2015-06-06T07:41:17Z</time>
      </trkpt>
      <trkpt lat="45.52505" lon="6.33499">
        <ele>1066.53</ele>
        <time>2015-06-06T07:42:13Z</time>
      </trkpt>
      <trkpt lat="45.52517" lon="6.33519">
        <ele>1073.64</ele>
        <time>2015-06-06T07:42:32Z</time>
      </trkpt>
      <trkpt lat="45.52533" lon="6.33532">
        <ele>1074.29</ele>
        <time>2015-06-06T07:42:55Z</time>
      </trkpt>
      <trkpt lat="45.52548" lon="6.3355">
        <ele>1093.32</ele>
        <time>2015-06-06T07:43:58Z</time>
      </trkpt>
      <trkpt lat="45.52565" lon="6.33558">
        <ele>1099.77</ele>
        <time>2015-06-06T07:44:53Z</time>
      </trkpt>
      <trkpt lat="45.52579" lon="6.33575">
        <ele>1100.53</ele>
        <time>2015-06-06T07:45:41Z</time>
      </trkpt>
      <trkpt lat="45.52593" lon="6.33591">
        <ele>1104.57</ele>
        <time>2015-06-06T07:46:03Z</time>
      </trkpt>
      <trkpt lat="45.52604" lon="6.33612">
        <ele>1116.27</ele>
        <time>2015-06-06T07:46:25Z</time>
      </trkpt>
      <trkpt lat="45.52618" lon="6.3363">
        <ele>1121.41</ele>
        <time>2015-06-06T07:47:08Z</time>
      </trkpt>
      <trkpt lat="45.52629" lon="6.33661">
        <ele>1126.38</ele>
        <time>2015-06-06T07:47:15Z</time>
      </trkpt>
      <trkpt lat="45.52636" lon="6.33687">
        <ele>1144.03</ele>
        <time>2015-06-06T07:48:09Z</time>
      </trkpt>
      <trkpt lat="45.52653" lon="6.33698">
        <ele>1146.86</ele>
        <time>2015-06-06T07:48:26Z</time>
      </trkpt>
      <trkpt lat="45.52666" lon="6.33678">
        <ele>1174.35</ele>
        <time>2015-06-06T07:50:07Z</time>
      </trkpt>
      <trkpt lat="45.52675" lon="6.33656">
        <ele>1168.03</ele>
        <time>2015-06-06T07:50:28Z</time>
      </trkpt>
      <trkpt lat="45.52693" lon="6.33662">
        <ele>1156.98</ele>
        <time>2015-06-06T07:50:53Z</time>
      </trkpt>
      <trkpt lat="45.52709" lon="6.33675">
        <ele>1163.09</ele>
        <time>2015-06-06T07:51:11Z</time>
      </trkpt>
      <trkpt lat="45.52726" lon="6.33685">
        <ele>1166.73</ele>
        <time>2015-06-06T07:51:31Z</time>
      </trkpt>
      <trkpt lat="45.52742" lon="6.337">
        <ele>1166.82</ele>
        <time>2015-06-06T07:51:50Z</time>
      </trkpt>
      <trkpt lat="45.5276" lon="6.33703">
        <ele>1167.33</ele>
        <time>2015-06-06T07:51:58Z</time>
      </trkpt>
      <trkpt lat="45.52777" lon="6.33714">
        <ele>1169.4</ele>
        <time>2015-06-06T07:52:19Z</time>
      </trkpt>
      <trkpt lat="45.52794" lon="6.33726">
        <ele>1164.5</ele>
        <time>2015-06-06T07:52:39Z</time>
      </trkpt>
      <trkpt lat="45.52812" lon="6.33735">
        <ele>1170.2</ele>
        <time>2015-06-06T07:52:57Z</time>
      </trkpt>
      <trkpt lat="45.52828" lon="6.33749">
        <ele>1168.12</ele>
        <time>2015-06-06T07:53:14Z</time>
      </trkpt>
      <trkpt lat="45.52847" lon="6.33758">
        <ele>1173.75</ele>
        <time>2015-06-06T07:53:31Z</time>
      </trkpt>
      <trkpt lat="45.52861" lon="6.33776">
        <ele>1171.07</ele>
        <time>2015-06-06T07:53:49Z</time>
      </trkpt>
      <trkpt lat="45.52878" lon="6.33787">
        <ele>1173.26</ele>
        <time>2015-06-06T07:54:08Z</time>
      </trkpt>
      <trkpt lat="45.52895" lon="6.33796">
        <ele>1177.99</ele>
        <time>2015-06-06T07:54:34Z</time>
      </trkpt>
      <trkpt lat="45.52912" lon="6.33809">
        <ele>1187.47</ele>
        <time>2015-06-06T07:54:56Z</time>
      </trkpt>
      <trkpt lat="45.52929" lon="6.33822">
        <ele>1181.1</ele>
        <time>2015-06-06T07:55:17Z</time>
      </trkpt>
      <trkpt lat="45.52943" lon="6.3384">
        <ele>1180.76</ele>
        <time>2015-06-06T07:55:36Z</time>
      </trkpt>
      <trkpt lat="45.52957" lon="6.33859">
        <ele>1189.84</ele>
        <time>2015-06-06T07:55:59Z</time>
      </trkpt>
      <trkpt lat="45.52974" lon="6.33867">
        <ele>1193.97</ele>
        <time>2015-06-06T07:56:17Z</time>
      </trkpt>
      <trkpt lat="45.52991" lon="6.33878">
        <ele>1194.02</ele>
        <time>2015-06-06T07:56:47Z</time>
      </trkpt>
      <trkpt lat="45.53009" lon="6.33885">
        <ele>1193.41</ele>
        <time>2015-06-06T07:57:03Z</time>
      </trkpt>
      <trkpt lat="45.53027" lon="6.33891">
        <ele>1194.24</ele>
        <time>2015-06-06T07:57:19Z</time>
      </trkpt>
      <trkpt lat="45.53045" lon="6.33898">
        <ele>1196.73</ele>
        <time>2015-06-06T07:57:31Z</time>
      </trkpt>
      <trkpt lat="45.53063" lon="6.33908">
        <ele>1199.21</ele>
        <time>2015-06-06T07:57:44Z</time>
      </trkpt>
      <trkpt lat="45.53081" lon="6.3392">
        <ele>1198.98</ele>
        <time>2015-06-06T07:58:02Z</time>
      </trkpt>
      <trkpt lat="45.53098" lon="6.33933">
        <ele>1196.57</ele>
        <time>2015-06-06T07:58:18Z</time>
      </trkpt>
      <trkpt lat="45.53116" lon="6.3394">
        <ele>1202.22</ele>
        <time>2015-06-06T07:58:41Z</time>
      </trkpt>
      <trkpt lat="45.53131" lon="6.33953">
        <ele>1202.66</ele>
        <time>2015-06-06T07:58:54Z</time>
      </trkpt>
      <trkpt lat="45.53148" lon="6.33965">
        <ele>1206.76</ele>
        <time>2015-06-06T07:59:14Z</time>
      </trkpt>
      <trkpt lat="45.53162" lon="6.33981">
        <ele>1210.32</ele>
        <time>2015-06-06T07:59:37Z</time>
      </trkpt>
      <trkpt lat="45.53179" lon="6.33995">
        <ele>1212.74</ele>
        <time>2015-06-06T08:00:02Z</time>
      </trkpt>
      <trkpt lat="45.53192" lon="6.34014">
        <ele>1210.31</ele>
        <time>2015-06-06T08:00:22Z</time>
      </trkpt>
      <trkpt lat="45.53211" lon="6.34014">
        <ele>1208.67</ele>
        <time>2015-06-06T08:00:54Z</time>
      </trkpt>
      <trkpt lat="45.53229" lon="6.34005">
        <ele>1214.66</ele>
        <time>2015-06-06T08:01:12Z</time>
      </trkpt>
      <trkpt lat="45.53247" lon="6.34005">
        <ele>1223.94</ele>
        <time>2015-06-06T08:01:29Z</time>
      </trkpt>
      <trkpt lat="45.53265" lon="6.34018">
        <ele>1220.88</ele>
        <time>2015-06-06T08:01:47Z</time>
      </trkpt>
      <trkpt lat="45.53284" lon="6.34018">
        <ele>1222.91</ele>
        <time>2015-06-06T08:02:12Z</time>
      </trkpt>
      <trkpt lat="45.53303" lon="6.34022">
        <ele>1220.48</ele>
        <time>2015-06-06T08:02:25Z</time>
      </trkpt>
      <trkpt lat="45.53319" lon="6.34034">
        <ele>1226.77</ele>
        <time>2015-06-06T08:02:44Z</time>
      </trkpt>
      <trkpt lat="45.53334" lon="6.34053">
        <ele>1229.57</ele>
        <time>2015-06-06T08:03:04Z</time>
      </trkpt>
      <trkpt lat="45.53348" lon="6.34069">
        <ele>1231.82</ele>
        <time>2015-06-06T08:03:23Z</time>
      </trkpt>
      <trkpt lat="45.53363" lon="6.34084">
        <ele>1232.51</ele>
        <time>2015-06-06T08:03:40Z</time>
      </trkpt>
      <trkpt lat="45.53381" lon="6.34086">
        <ele>1239.82</ele>
        <time>2015-06-06T08:03:58Z</time>
      </trkpt>
      <trkpt lat="45.53399" lon="6.34097">
        <ele>1235.4</ele>
        <time>2015-06-06T08:04:11Z</time>
      </trkpt>
      <trkpt lat="45.53412" lon="6.34115">
        <ele>1236.87</ele>
        <time>2015-06-06T08:04:31Z</time>
      </trkpt>
      <trkpt lat="45.53427" lon="6.34131">
        <ele>1232.07</ele>
        <time>2015-06-06T08:04:48Z</time>
      </trkpt>
      <trkpt lat="45.53444" lon="6.34142">
        <ele>1230.21</ele>
        <time>2015-06-06T08:05:03Z</time>
      </trkpt>
      <trkpt lat="45.53462" lon="6.3414">
        <ele>1227.32</ele>
        <time>2015-06-06T08:05:22Z</time>
      </trkpt>
      <trkpt lat="45.53478" lon="6.34126">
        <ele>1224.12</ele>
        <time>2015-06-06T08:05:40Z</time>
      </trkpt>
      <trkpt lat="45.53493" lon="6.34113">
        <ele>1221.81</ele>
        <time>2015-06-06T08:05:55Z</time>
      </trkpt>
      <trkpt lat="45.53513" lon="6.34116">
        <ele>1220.7</ele>
        <time>2015-06-06T08:06:08Z</time>
      </trkpt>
      <trkpt lat="45.5353" lon="6.34104">
        <ele>1220.5</ele>
        <time>2015-06-06T08:06:23Z</time>
      </trkpt>
      <trkpt lat="45.53548" lon="6.34102">
        <ele>1223.17</ele>
        <time>2015-06-06T08:06:41Z</time>
      </trkpt>
      <trkpt lat="45.53566" lon="6.34107">
        <ele>1225.41</ele>
        <time>2015-06-06T08:06:55Z</time>
      </trkpt>
      <trkpt lat="45.53583" lon="6.34114">
        <ele>1223.44</ele>
        <time>2015-06-06T08:07:10Z</time>
      </trkpt>
      <trkpt lat="45.53601" lon="6.34118">
        <ele>1220.04</ele>
        <time>2015-06-06T08:07:27Z</time>
      </trkpt>
      <trkpt lat="45.53618" lon="6.34126">
        <ele>1221.9</ele>
        <time>2015-06-06T08:07:43Z</time>
      </trkpt>
      <trkpt lat="45.53636" lon="6.34126">
        <ele>1221.44</ele>
        <time>2015-06-06T08:08:00Z</time>
      </trkpt>
      <trkpt lat="45.53655" lon="6.34124">
        <ele>1226.37</ele>
        <time>2015-06-06T08:08:20Z</time>
      </trkpt>
      <trkpt lat="45.53674" lon="6.34121">
        <ele>1225.28</ele>
        <time>2015-06-06T08:08:41Z</time>
      </trkpt>
      <trkpt lat="45.53691" lon="6.34128">
        <ele>1225.41</ele>
        <time>2015-06-06T08:09:11Z</time>
      </trkpt>
      <trkpt lat="45.53708" lon="6.34141">
        <ele>1229.14</ele>
        <time>2015-06-06T08:09:23Z</time>
      </trkpt>
      <trkpt lat="45.53725" lon="6.34152">
        <ele>1229.38</ele>
        <time>2015-06-06T08:09:37Z</time>
      </trkpt>
      <trkpt lat="45.53737" lon="6.34172">
        <ele>1229.14</ele>
        <time>2015-06-06T08:09:52Z</time>
      </trkpt>
      <trkpt lat="45.53755" lon="6.34184">
        <ele>1237.27</ele>
        <time>2015-06-06T08:10:11Z</time>
      </trkpt>
      <trkpt lat="45.53771" lon="6.34196">
        <ele>1235.13</ele>
        <time>2015-06-06T08:10:23Z</time>
      </trkpt>
      <trkpt lat="45.53788" lon="6.34203">
        <ele>1232.9</ele>
        <time>2015-06-06T08:10:38Z</time>
      </trkpt>
      <trkpt lat="45.53807" lon="6.34204">
        <ele>1235.35</ele>
        <time>2015-06-06T08:10:58Z</time>
      </trkpt>
      <trkpt lat="45.53823" lon="6.34215">
        <ele>1231.27</ele>
        <time>2015-06-06T08:11:14Z</time>
      </trkpt>
      <trkpt lat="45.53842" lon="6.34216">
        <ele>1235.46</ele>
        <time>2015-06-06T08:11:31Z</time>
      </trkpt>
      <trkpt lat="45.5386" lon="6.34215">
        <ele>1230.57</ele>
        <time>2015-06-06T08:11:51Z</time>
      </trkpt>
      <trkpt lat="45.53879" lon="6.34212">
        <ele>1235.09</ele>
        <time>2015-06-06T08:12:11Z</time>
      </trkpt>
      <trkpt lat="45.53898" lon="6.34208">
        <ele>1234.93</ele>
        <time>2015-06-06T08:12:22Z</time>
      </trkpt>
      <trkpt lat="45.53917" lon="6.34207">
        <ele>1231.71</ele>
        <time>2015-06-06T08:12:34Z</time>
      </trkpt>
      <trkpt lat="45.53935" lon="6.34206">
        <ele>1234.08</ele>
        <time>2015-06-06T08:12:45Z</time>
      </trkpt>
      <trkpt lat="45.53953" lon="6.342">
        <ele>1229.41</ele>
        <time>2015-06-06T08:12:58Z</time>
      </trkpt>
      <trkpt lat="45.5397" lon="6.34187">
        <ele>1236.79</ele>
        <time>2015-06-06T08:13:11Z</time>
      </trkpt>
      <trkpt lat="45.53986" lon="6.34177">
        <ele>1238.29</ele>
        <time>2015-06-06T08:13:26Z</time>
      </trkpt>
      <trkpt lat="45.54002" lon="6.34162">
        <ele>1230.03</ele>
        <time>2015-06-06T08:13:41Z</time>
      </trkpt>
      <trkpt lat="45.53999" lon="6.34136">
        <ele>1228.01</ele>
        <time>2015-06-06T08:14:03Z</time>
      </trkpt>
      <trkpt lat="45.54015" lon="6.34152">
        <ele>1250.05</ele>
        <time>2015-06-06T08:17:14Z</time>
      </trkpt>
      <trkpt lat="45.53995" lon="6.34162">
        <ele>1251.55</ele>
        <time>2015-06-06T08:17:19Z</time>
      </trkpt>
      <trkpt lat="45.54011" lon="6.34147">
        <ele>1251.63</ele>
        <time>2015-06-06T08:19:15Z</time>
      </trkpt>
      <trkpt lat="45.54019" lon="6.34122">
        <ele>1251.75</ele>
        <time>2015-06-06T08:19:28Z</time>
      </trkpt>
      <trkpt lat="45.54035" lon="6.34105">
        <ele>1253.22</ele>
        <time>2015-06-06T08:19:59Z</time>
      </trkpt>
      <trkpt lat="45.54049" lon="6.34088">
        <ele>1248.13</ele>
        <time>2015-06-06T08:20:11Z</time>
      </trkpt>
      <trkpt lat="45.54067" lon="6.34076">
        <ele>1242.01</ele>
        <time>2015-06-06T08:20:25Z</time>
      </trkpt>
      <trkpt lat="45.54086" lon="6.34067">
        <ele>1240.39</ele>
        <time>2015-06-06T08:21:05Z</time>
      </trkpt>
      <trkpt lat="45.54104" lon="6.34072">
        <ele>1235.27</ele>
        <time>2015-06-06T08:21:15Z</time>
      </trkpt>
      <trkpt lat="45.54124" lon="6.34071">
        <ele>1236.94</ele>
        <time>2015-06-06T08:21:30Z</time>
      </trkpt>
      <trkpt lat="45.54143" lon="6.34073">
        <ele>1234.07</ele>
        <time>2015-06-06T08:21:41Z</time>
      </trkpt>
      <trkpt lat="45.54161" lon="6.34063">
        <ele>1240.86</ele>
        <time>2015-06-06T08:22:00Z</time>
      </trkpt>
      <trkpt lat="45.5418" lon="6.34056">
        <ele>1243.17</ele>
        <time>2015-06-06T08:22:21Z</time>
      </trkpt>
      <trkpt lat="45.54197" lon="6.34041">
        <ele>1246.69</ele>
        <time>2015-06-06T08:22:33Z</time>
      </trkpt>
      <trkpt lat="45.54215" lon="6.34038">
        <ele>1249.95</ele>
        <time>2015-06-06T08:22:45Z</time>
      </trkpt>
      <trkpt lat="45.54231" lon="6.34026">
        <ele>1251.74</ele>
        <time>2015-06-06T08:22:59Z</time>
      </trkpt>
      <trkpt lat="45.54246" lon="6.34007">
        <ele>1247.97</ele>
        <time>2015-06-06T08:23:21Z</time>
      </trkpt>
      <trkpt lat="45.54258" lon="6.33986">
        <ele>1257.25</ele>
        <time>2015-06-06T08:23:36Z</time>
      </trkpt>
      <trkpt lat="45.54276" lon="6.33983">
        <ele>1260.87</ele>
        <time>2015-06-06T08:23:55Z</time>
      </trkpt>
      <trkpt lat="45.54294" lon="6.33977">
        <ele>1264.7</ele>
        <time>2015-06-06T08:24:22Z</time>
      </trkpt>
      <trkpt lat="45.54312" lon="6.33971">
        <ele>1259.28</ele>
        <time>2015-06-06T08:24:28Z</time>
      </trkpt>
      <trkpt lat="45.5433" lon="6.33972">
        <ele>1267.15</ele>
        <time>2015-06-06T08:24:39Z</time>
      </trkpt>
      <trkpt lat="45.54349" lon="6.3398">
        <ele>1268.53</ele>
        <time>2015-06-06T08:25:10Z</time>
      </trkpt>
      <trkpt lat="45.54365" lon="6.33992">
        <ele>1266.78</ele>
        <time>2015-06-06T08:25:22Z</time>
      </trkpt>
      <trkpt lat="45.54384" lon="6.33996">
        <ele>1270.16</ele>
        <time>2015-06-06T08:25:36Z</time>
      </trkpt>
      <trkpt lat="45.54401" lon="6.33982">
        <ele>1275.31</ele>
        <time>2015-06-06T08:25:50Z</time>
      </trkpt>
      <trkpt lat="45.54412" lon="6.33961">
        <ele>1278.77</ele>
        <time>2015-06-06T08:26:06Z</time>
      </trkpt>
      <trkpt lat="45.54426" lon="6.33945">
        <ele>1282.36</ele>
        <time>2015-06-06T08:26:25Z</time>
      </trkpt>
      <trkpt lat="45.54442" lon="6.33931">
        <ele>1285.87</ele>
        <time>2015-06-06T08:27:10Z</time>
      </trkpt>
      <trkpt lat="45.54459" lon="6.33923">
        <ele>1286.76</ele>
        <time>2015-06-06T08:27:29Z</time>
      </trkpt>
      <trkpt lat="45.54474" lon="6.33905">
        <ele>1280.32</ele>
        <time>2015-06-06T08:27:48Z</time>
      </trkpt>
      <trkpt lat="45.54486" lon="6.33884">
        <ele>1273.62</ele>
        <time>2015-06-06T08:28:03Z</time>
      </trkpt>
      <trkpt lat="45.54492" lon="6.33859">
        <ele>1275.48</ele>
        <time>2015-06-06T08:28:23Z</time>
      </trkpt>
      <trkpt lat="45.54507" lon="6.33843">
        <ele>1272.16</ele>
        <time>2015-06-06T08:28:49Z</time>
      </trkpt>
      <trkpt lat="45.54519" lon="6.3382">
        <ele>1261.69</ele>
        <time>2015-06-06T08:28:59Z</time>
      </trkpt>
      <trkpt lat="45.54529" lon="6.33797">
        <ele>1259.66</ele>
        <time>2015-06-06T08:29:12Z</time>
      </trkpt>
      <trkpt lat="45.54541" lon="6.33774">
        <ele>1261.07</ele>
        <time>2015-06-06T08:29:24Z</time>
      </trkpt>
      <trkpt lat="45.54552" lon="6.33751">
        <ele>1257.36</ele>
        <time>2015-06-06T08:29:37Z</time>
      </trkpt>
      <trkpt lat="45.54559" lon="6.33724">
        <ele>1258.31</ele>
        <time>2015-06-06T08:29:51Z</time>
      </trkpt>
      <trkpt lat="45.54559" lon="6.33696">
        <ele>1266.72</ele>
        <time>2015-06-06T08:30:01Z</time>
      </trkpt>
      <trkpt lat="45.5456" lon="6.33671">
        <ele>1264.16</ele>
        <time>2015-06-06T08:30:19Z</time>
      </trkpt>
      <trkpt lat="45.54561" lon="6.33645">
        <ele>1259.35</ele>
        <time>2015-06-06T08:30:33Z</time>
      </trkpt>
      <trkpt lat="45.54559" lon="6.33617">
        <ele>1268.45</ele>
        <time>2015-06-06T08:30:42Z</time>
      </trkpt>
      <trkpt lat="45.54562" lon="6.3359">
        <ele>1267.07</ele>
        <time>2015-06-06T08:30:56Z</time>
      </trkpt>
      <trkpt lat="45.54563" lon="6.33564">
        <ele>1266.16</ele>
        <time>2015-06-06T08:31:11Z</time>
      </trkpt>
      <trkpt lat="45.54558" lon="6.33537">
        <ele>1273.89</ele>
        <time>2015-06-06T08:31:22Z</time>
      </trkpt>
      <trkpt lat="45.54557" lon="6.3351">
        <ele>1277.53</ele>
        <time>2015-06-06T08:31:35Z</time>
      </trkpt>
      <trkpt lat="45.54563" lon="6.33485">
        <ele>1274.58</ele>
        <time>2015-06-06T08:31:49Z</time>
      </trkpt>
      <trkpt lat="45.5457" lon="6.33461">
        <ele>1273.92</ele>
        <time>2015-06-06T08:32:03Z</time>
      </trkpt>
      <trkpt lat="45.54584" lon="6.33441">
        <ele>1270.48</ele>
        <time>2015-06-06T08:32:17Z</time>
      </trkpt>
      <trkpt lat="45.54599" lon="6.33429">
        <ele>1267.59</ele>
        <time>2015-06-06T08:32:31Z</time>
      </trkpt>
      <trkpt lat="45.54617" lon="6.33419">
        <ele>1265.88</ele>
        <time>2015-06-06T08:32:46Z</time>
      </trkpt>
      <trkpt lat="45.54635" lon="6.33419">
        <ele>1262.44</ele>
        <time>2015-06-06T08:33:03Z</time>
      </trkpt>
      <trkpt lat="45.54654" lon="6.33417">
        <ele>1265.06</ele>
        <time>2015-06-06T08:33:15Z</time>
      </trkpt>
      <trkpt lat="45.5467" lon="6.33432">
        <ele>1262.07</ele>
        <time>2015-06-06T08:33:31Z</time>
      </trkpt>
      <trkpt lat="45.54687" lon="6.33441">
        <ele>1261.44</ele>
        <time>2015-06-06T08:33:43Z</time>
      </trkpt>
      <trkpt lat="45.54704" lon="6.33452">
        <ele>1263.16</ele>
        <time>2015-06-06T08:33:56Z</time>
      </trkpt>
      <trkpt lat="45.54721" lon="6.33464">
        <ele>1264.26</ele>
        <time>2015-06-06T08:34:12Z</time>
      </trkpt>
      <trkpt lat="45.54736" lon="6.33477">
        <ele>1260.58</ele>
        <time>2015-06-06T08:35:09Z</time>
      </trkpt>
      <trkpt lat="45.54754" lon="6.33489">
        <ele>1260.47</ele>
        <time>2015-06-06T08:35:19Z</time>
      </trkpt>
      <trkpt lat="45.5477" lon="6.335">
        <ele>1258.37</ele>
        <time>2015-06-06T08:35:32Z</time>
      </trkpt>
      <trkpt lat="45.54784" lon="6.33517">
        <ele>1262.4</ele>
        <time>2015-06-06T08:35:45Z</time>
      </trkpt>
      <trkpt lat="45.54788" lon="6.33542">
        <ele>1259.56</ele>
        <time>2015-06-06T08:36:00Z</time>
      </trkpt>
      <trkpt lat="45.54792" lon="6.33569">
        <ele>1264.63</ele>
        <time>2015-06-06T08:36:19Z</time>
      </trkpt>
      <trkpt lat="45.54794" lon="6.33598">
        <ele>1273.1</ele>
        <time>2015-06-06T08:36:35Z</time>
      </trkpt>
      <trkpt lat="45.54793" lon="6.33626">
        <ele>1277.9</ele>
        <time>2015-06-06T08:36:52Z</time>
      </trkpt>
      <trkpt lat="45.54792" lon="6.33652">
        <ele>1284.87</ele>
        <time>2015-06-06T08:37:21Z</time>
      </trkpt>
      <trkpt lat="45.54795" lon="6.33677">
        <ele>1286.08</ele>
        <time>2015-06-06T08:37:35Z</time>
      </trkpt>
      <trkpt lat="45.54812" lon="6.33687">
        <ele>1283.71</ele>
        <time>2015-06-06T08:37:53Z</time>
      </trkpt>
      <trkpt lat="45.54824" lon="6.33707">
        <ele>1276.68</ele>
        <time>2015-06-06T08:38:09Z</time>
      </trkpt>
      <trkpt lat="45.54835" lon="6.33728">
        <ele>1274.43</ele>
        <time>2015-06-06T08:38:28Z</time>
      </trkpt>
      <trkpt lat="45.54846" lon="6.33751">
        <ele>1279.89</ele>
        <time>2015-06-06T08:38:46Z</time>
      </trkpt>
      <trkpt lat="45.54863" lon="6.33761">
        <ele>1288.71</ele>
        <time>2015-06-06T08:38:52Z</time>
      </trkpt>
      <trkpt lat="45.54877" lon="6.33779">
        <ele>1291.21</ele>
        <time>2015-06-06T08:39:04Z</time>
      </trkpt>
      <trkpt lat="45.54886" lon="6.33802">
        <ele>1301.88</ele>
        <time>2015-06-06T08:39:17Z</time>
      </trkpt>
      <trkpt lat="45.54894" lon="6.33827">
        <ele>1301.17</ele>
        <time>2015-06-06T08:39:32Z</time>
      </trkpt>
      <trkpt lat="45.54908" lon="6.33846">
        <ele>1295.56</ele>
        <time>2015-06-06T08:39:43Z</time>
      </trkpt>
      <trkpt lat="45.54923" lon="6.3386">
        <ele>1300.57</ele>
        <time>2015-06-06T08:39:56Z</time>
      </trkpt>
      <trkpt lat="45.54931" lon="6.33884">
        <ele>1292.17</ele>
        <time>2015-06-06T08:40:13Z</time>
      </trkpt>
      <trkpt lat="45.54939" lon="6.33908">
        <ele>1279.25</ele>
        <time>2015-06-06T08:40:32Z</time>
      </trkpt>
      <trkpt lat="45.54954" lon="6.33923">
        <ele>1272.26</ele>
        <time>2015-06-06T08:40:54Z</time>
      </trkpt>
      <trkpt lat="45.54969" lon="6.33939">
        <ele>1268.19</ele>
        <time>2015-06-06T08:41:15Z</time>
      </trkpt>
      <trkpt lat="45.54986" lon="6.33949">
        <ele>1268.7</ele>
        <time>2015-06-06T08:41:30Z</time>
      </trkpt>
      <trkpt lat="45.55006" lon="6.33956">
        <ele>1272.4</ele>
        <time>2015-06-06T08:41:52Z</time>
      </trkpt>
      <trkpt lat="45.55023" lon="6.33969">
        <ele>1272.63</ele>
        <time>2015-06-06T08:42:03Z</time>
      </trkpt>
      <trkpt lat="45.55034" lon="6.33991">
        <ele>1280.59</ele>
        <time>2015-06-06T08:42:20Z</time>
      </trkpt>
      <trkpt lat="45.55044" lon="6.34015">
        <ele>1279.88</ele>
        <time>2015-06-06T08:42:33Z</time>
      </trkpt>
      <trkpt lat="45.55059" lon="6.34034">
        <ele>1285.73</ele>
        <time>2015-06-06T08:42:46Z</time>
      </trkpt>
      <trkpt lat="45.55073" lon="6.34052">
        <ele>1294.51</ele>
        <time>2015-06-06T08:42:58Z</time>
      </trkpt>
      <trkpt lat="45.55092" lon="6.3406">
        <ele>1304.23</ele>
        <time>2015-06-06T08:43:13Z</time>
      </trkpt>
      <trkpt lat="45.55093" lon="6.34087">
        <ele>1285.56</ele>
        <time>2015-06-06T08:43:44Z</time>
      </trkpt>
      <trkpt lat="45.55112" lon="6.3409">
        <ele>1278.68</ele>
        <time>2015-06-06T08:44:08Z</time>
      </trkpt>
      <trkpt lat="45.5513" lon="6.34079">
        <ele>1276.78</ele>
        <time>2015-06-06T08:44:34Z</time>
      </trkpt>
      <trkpt lat="45.55143" lon="6.34061">
        <ele>1276.91</ele>
        <time>2015-06-06T08:44:46Z</time>
      </trkpt>
      <trkpt lat="45.55153" lon="6.34039">
        <ele>1275.48</ele>
        <time>2015-06-06T08:45:05Z</time>
      </trkpt>
      <trkpt lat="45.55161" lon="6.34016">
        <ele>1273.81</ele>
        <time>2015-06-06T08:45:31Z</time>
      </trkpt>
      <trkpt lat="45.55169" lon="6.3399">
        <ele>1286.43</ele>
        <time>2015-06-06T08:45:56Z</time>
      </trkpt>
      <trkpt lat="45.55172" lon="6.33964">
        <ele>1301.03</ele>
        <time>2015-06-06T08:46:20Z</time>
      </trkpt>
      <trkpt lat="45.55177" lon="6.33938">
        <ele>1299.6</ele>
        <time>2015-06-06T08:46:56Z</time>
      </trkpt>
      <trkpt lat="45.55186" lon="6.33914">
        <ele>1295.55</ele>
        <time>2015-06-06T08:47:18Z</time>
      </trkpt>
      <trkpt lat="45.552" lon="6.33898">
        <ele>1301.74</ele>
        <time>2015-06-06T08:47:33Z</time>
      </trkpt>
      <trkpt lat="45.55214" lon="6.33881">
        <ele>1307.44</ele>
        <time>2015-06-06T08:47:54Z</time>
      </trkpt>
      <trkpt lat="45.55224" lon="6.33859">
        <ele>1313.45</ele>
        <time>2015-06-06T08:48:14Z</time>
      </trkpt>
      <trkpt lat="45.55238" lon="6.33841">
        <ele>1314.53</ele>
        <time>2015-06-06T08:48:26Z</time>
      </trkpt>
      <trkpt lat="45.5525" lon="6.33821">
        <ele>1312.01</ele>
        <time>2015-06-06T08:48:46Z</time>
      </trkpt>
      <trkpt lat="45.5525" lon="6.33795">
        <ele>1313.96</ele>
        <time>2015-06-06T08:48:59Z</time>
      </trkpt>
      <trkpt lat="45.55257" lon="6.3377">
        <ele>1324.68</ele>
        <time>2015-06-06T08:49:16Z</time>
      </trkpt>
      <trkpt lat="45.55265" lon="6.33747">
        <ele>1311.36</ele>
        <time>2015-06-06T08:49:40Z</time>
      </trkpt>
      <trkpt lat="45.55273" lon="6.33723">
        <ele>1316.72</ele>
        <time>2015-06-06T08:50:02Z</time>
      </trkpt>
      <trkpt lat="45.55287" lon="6.33708">
        <ele>1327.4</ele>
        <time>2015-06-06T08:50:34Z</time>
      </trkpt>
      <trkpt lat="45.55306" lon="6.33699">
        <ele>1335.43</ele>
        <time>2015-06-06T08:51:10Z</time>
      </trkpt>
      <trkpt lat="45.55324" lon="6.33697">
        <ele>1329.63</ele>
        <time>2015-06-06T08:51:40Z</time>
      </trkpt>
      <trkpt lat="45.5534" lon="6.3368">
        <ele>1338.49</ele>
        <time>2015-06-06T08:52:05Z</time>
      </trkpt>
      <trkpt lat="45.5536" lon="6.33683">
        <ele>1329.15</ele>
        <time>2015-06-06T08:52:22Z</time>
      </trkpt>
      <trkpt lat="45.55376" lon="6.33669">
        <ele>1337.24</ele>
        <time>2015-06-06T08:52:45Z</time>
      </trkpt>
      <trkpt lat="45.55392" lon="6.33656">
        <ele>1347.48</ele>
        <time>2015-06-06T08:53:12Z</time>
      </trkpt>
      <trkpt lat="45.55402" lon="6.33634">
        <ele>1353.6</ele>
        <time>2015-06-06T08:53:43Z</time>
      </trkpt>
      <trkpt lat="45.5542" lon="6.3363">
        <ele>1362.67</ele>
        <time>2015-06-06T08:54:16Z</time>
      </trkpt>
      <trkpt lat="45.55437" lon="6.33623">
        <ele>1364.47</ele>
        <time>2015-06-06T08:54:42Z</time>
      </trkpt>
      <trkpt lat="45.55456" lon="6.33619">
        <ele>1368.12</ele>
        <time>2015-06-06T08:55:01Z</time>
      </trkpt>
      <trkpt lat="45.55474" lon="6.33613">
        <ele>1369.62</ele>
        <time>2015-06-06T08:55:25Z</time>
      </trkpt>
      <trkpt lat="45.5549" lon="6.33602">
        <ele>1374.04</ele>
        <time>2015-06-06T08:55:57Z</time>
      </trkpt>
      <trkpt lat="45.55508" lon="6.33593">
        <ele>1386.08</ele>
        <time>2015-06-06T08:56:16Z</time>
      </trkpt>
      <trkpt lat="45.55527" lon="6.33589">
        <ele>1394.87</ele>
        <time>2015-06-06T08:56:47Z</time>
      </trkpt>
      <trkpt lat="45.55544" lon="6.33582">
        <ele>1400.03</ele>
        <time>2015-06-06T08:57:24Z</time>
      </trkpt>
      <trkpt lat="45.55546" lon="6.33609">
        <ele>1404.08</ele>
        <time>2015-06-06T08:59:45Z</time>
      </trkpt>
      <trkpt lat="45.55532" lon="6.33626">
        <ele>1401.63</ele>
        <time>2015-06-06T09:00:06Z</time>
      </trkpt>
      <trkpt lat="45.55523" lon="6.33648">
        <ele>1401.59</ele>
        <time>2015-06-06T09:00:49Z</time>
      </trkpt>
      <trkpt lat="45.55515" lon="6.33673">
        <ele>1399.09</ele>
        <time>2015-06-06T09:01:11Z</time>
      </trkpt>
      <trkpt lat="45.55513" lon="6.33699">
        <ele>1403.19</ele>
        <time>2015-06-06T09:01:32Z</time>
      </trkpt>
      <trkpt lat="45.55514" lon="6.33725">
        <ele>1407.97</ele>
        <time>2015-06-06T09:01:54Z</time>
      </trkpt>
      <trkpt lat="45.55519" lon="6.3375">
        <ele>1408.65</ele>
        <time>2015-06-06T09:02:50Z</time>
      </trkpt>
      <trkpt lat="45.55526" lon="6.33774">
        <ele>1419.19</ele>
        <time>2015-06-06T09:04:21Z</time>
      </trkpt>
      <trkpt lat="45.55541" lon="6.33789">
        <ele>1431.19</ele>
        <time>2015-06-06T09:05:14Z</time>
      </trkpt>
      <trkpt lat="45.55558" lon="6.33811">
        <ele>1448.03</ele>
        <time>2015-06-06T09:07:17Z</time>
      </trkpt>
      <trkpt lat="45.55573" lon="6.33826">
        <ele>1460.41</ele>
        <time>2015-06-06T09:08:00Z</time>
      </trkpt>
      <trkpt lat="45.55589" lon="6.33841">
        <ele>1455.32</ele>
        <time>2015-06-06T09:08:33Z</time>
      </trkpt>
      <trkpt lat="45.55602" lon="6.33861">
        <ele>1463.47</ele>
        <time>2015-06-06T09:09:33Z</time>
      </trkpt>
      <trkpt lat="45.55594" lon="6.33885">
        <ele>1485.73</ele>
        <time>2015-06-06T09:13:11Z</time>
      </trkpt>
      <trkpt lat="45.55586" lon="6.33909">
        <ele>1484.33</ele>
        <time>2015-06-06T09:13:29Z</time>
      </trkpt>
      <trkpt lat="45.55568" lon="6.33913">
        <ele>1488.99</ele>
        <time>2015-06-06T09:13:56Z</time>
      </trkpt>
      <trkpt lat="45.55585" lon="6.33922">
        <ele>1500.5</ele>
        <time>2015-06-06T09:14:50Z</time>
      </trkpt>
      <trkpt lat="45.55603" lon="6.33927">
        <ele>1502.5</ele>
        <time>2015-06-06T09:15:10Z</time>
      </trkpt>
      <trkpt lat="45.55622" lon="6.33931">
        <ele>1505.14</ele>
        <time>2015-06-06T09:15:52Z</time>
      </trkpt>
      <trkpt lat="45.5564" lon="6.33922">
        <ele>1503.49</ele>
        <time>2015-06-06T09:16:14Z</time>
      </trkpt>
      <trkpt lat="45.55657" lon="6.3391">
        <ele>1505.83</ele>
        <time>2015-06-06T09:16:39Z</time>
      </trkpt>
      <trkpt lat="45.55668" lon="6.33889">
        <ele>1516.74</ele>
        <time>2015-06-06T09:17:07Z</time>
      </trkpt>
      <trkpt lat="45.55679" lon="6.33868">
        <ele>1520.91</ele>
        <time>2015-06-06T09:17:40Z</time>
      </trkpt>
      <trkpt lat="45.55694" lon="6.33853">
        <ele>1527.76</ele>
        <time>2015-06-06T09:18:07Z</time>
      </trkpt>
      <trkpt lat="45.55706" lon="6.33833">
        <ele>1532.13</ele>
        <time>2015-06-06T09:18:29Z</time>
      </trkpt>
      <trkpt lat="45.55717" lon="6.33812">
        <ele>1535.58</ele>
        <time>2015-06-06T09:19:01Z</time>
      </trkpt>
      <trkpt lat="45.55727" lon="6.33791">
        <ele>1539.15</ele>
        <time>2015-06-06T09:19:24Z</time>
      </trkpt>
      <trkpt lat="45.55732" lon="6.33765">
        <ele>1540.93</ele>
        <time>2015-06-06T09:19:48Z</time>
      </trkpt>
      <trkpt lat="45.55742" lon="6.33743">
        <ele>1547.62</ele>
        <time>2015-06-06T09:20:23Z</time>
      </trkpt>
      <trkpt lat="45.55746" lon="6.33717">
        <ele>1551.55</ele>
        <time>2015-06-06T09:20:45Z</time>
      </trkpt>
      <trkpt lat="45.55762" lon="6.33702">
        <ele>1557.51</ele>
        <time>2015-06-06T09:21:10Z</time>
      </trkpt>
      <trkpt lat="45.5578" lon="6.33708">
        <ele>1562.03</ele>
        <time>2015-06-06T09:22:43Z</time>
      </trkpt>
      <trkpt lat="45.55798" lon="6.33705">
        <ele>1567.45</ele>
        <time>2015-06-06T09:23:28Z</time>
      </trkpt>
      <trkpt lat="45.55816" lon="6.33713">
        <ele>1565.53</ele>
        <time>2015-06-06T09:24:23Z</time>
      </trkpt>
      <trkpt lat="45.55828" lon="6.33731">
        <ele>1577.64</ele>
        <time>2015-06-06T09:27:15Z</time>
      </trkpt>
      <trkpt lat="45.55843" lon="6.33746">
        <ele>1590.41</ele>
        <time>2015-06-06T09:28:10Z</time>
      </trkpt>
      <trkpt lat="45.55861" lon="6.3375">
        <ele>1595.07</ele>
        <time>2015-06-06T09:28:27Z</time>
      </trkpt>
      <trkpt lat="45.55873" lon="6.33769">
        <ele>1590.56</ele>
        <time>2015-06-06T09:28:53Z</time>
      </trkpt>
      <trkpt lat="45.55886" lon="6.33787">
        <ele>1590.75</ele>
        <time>2015-06-06T09:29:18Z</time>
      </trkpt>
      <trkpt lat="45.559" lon="6.33804">
        <ele>1590.61</ele>
        <time>2015-06-06T09:29:32Z</time>
      </trkpt>
      <trkpt lat="45.55915" lon="6.33821">
        <ele>1593.96</ele>
        <time>2015-06-06T09:29:50Z</time>
      </trkpt>
      <trkpt lat="45.5593" lon="6.33836">
        <ele>1600.2</ele>
        <time>2015-06-06T09:30:07Z</time>
      </trkpt>
      <trkpt lat="45.55944" lon="6.33853">
        <ele>1605.45</ele>
        <time>2015-06-06T09:30:33Z</time>
      </trkpt>
      <trkpt lat="45.55959" lon="6.33868">
        <ele>1608.08</ele>
        <time>2015-06-06T09:31:02Z</time>
      </trkpt>
      <trkpt lat="45.55973" lon="6.33885">
        <ele>1604.64</ele>
        <time>2015-06-06T09:31:28Z</time>
      </trkpt>
      <trkpt lat="45.55987" lon="6.33904">
        <ele>1601.27</ele>
        <time>2015-06-06T09:31:47Z</time>
      </trkpt>
      <trkpt lat="45.56002" lon="6.33918">
        <ele>1604.89</ele>
        <time>2015-06-06T09:32:03Z</time>
      </trkpt>
      <trkpt lat="45.56017" lon="6.33933">
        <ele>1611.58</ele>
        <time>2015-06-06T09:32:28Z</time>
      </trkpt>
      <trkpt lat="45.56034" lon="6.33949">
        <ele>1614.56</ele>
        <time>2015-06-06T09:32:59Z</time>
      </trkpt>
      <trkpt lat="45.56048" lon="6.33966">
        <ele>1612.15</ele>
        <time>2015-06-06T09:33:14Z</time>
      </trkpt>
      <trkpt lat="45.56065" lon="6.33978">
        <ele>1613.71</ele>
        <time>2015-06-06T09:33:41Z</time>
      </trkpt>
      <trkpt lat="45.56081" lon="6.33988">
        <ele>1614.41</ele>
        <time>2015-06-06T09:34:00Z</time>
      </trkpt>
      <trkpt lat="45.56098" lon="6.33998">
        <ele>1615.34</ele>
        <time>2015-06-06T09:34:26Z</time>
      </trkpt>
      <trkpt lat="45.56116" lon="6.34">
        <ele>1623.4</ele>
        <time>2015-06-06T09:35:03Z</time>
      </trkpt>
      <trkpt lat="45.56134" lon="6.34002">
        <ele>1627.04</ele>
        <time>2015-06-06T09:35:37Z</time>
      </trkpt>
      <trkpt lat="45.56135" lon="6.34028">
        <ele>1631.71</ele>
        <time>2015-06-06T09:37:05Z</time>
      </trkpt>
      <trkpt lat="45.56145" lon="6.34051">
        <ele>1651.84</ele>
        <time>2015-06-06T09:38:58Z</time>
      </trkpt>
      <trkpt lat="45.56151" lon="6.34075">
        <ele>1657.34</ele>
        <time>2015-06-06T09:39:49Z</time>
      </trkpt>
      <trkpt lat="45.56153" lon="6.34101">
        <ele>1665.53</ele>
        <time>2015-06-06T09:40:57Z</time>
      </trkpt>
      <trkpt lat="45.56171" lon="6.34107">
        <ele>1691.54</ele>
        <time>2015-06-06T09:42:44Z</time>
      </trkpt>
      <trkpt lat="45.56188" lon="6.34099">
        <ele>1694.2</ele>
        <time>2015-06-06T09:43:06Z</time>
      </trkpt>
      <trkpt lat="45.56205" lon="6.3411">
        <ele>1696.97</ele>
        <time>2015-06-06T09:43:51Z</time>
      </trkpt>
      <trkpt lat="45.56223" lon="6.34101">
        <ele>1700.03</ele>
        <time>2015-06-06T09:44:32Z</time>
      </trkpt>
      <trkpt lat="45.56236" lon="6.34119">
        <ele>1701.95</ele>
        <time>2015-06-06T09:45:03Z</time>
      </trkpt>
      <trkpt lat="45.56253" lon="6.34131">
        <ele>1705.78</ele>
        <time>2015-06-06T09:45:27Z</time>
      </trkpt>
      <trkpt lat="45.56271" lon="6.34136">
        <ele>1710.25</ele>
        <time>2015-06-06T09:45:52Z</time>
      </trkpt>
      <trkpt lat="45.56289" lon="6.34141">
        <ele>1713.86</ele>
        <time>2015-06-06T09:46:26Z</time>
      </trkpt>
      <trkpt lat="45.56307" lon="6.34144">
        <ele>1716.09</ele>
        <time>2015-06-06T09:46:59Z</time>
      </trkpt>
      <trkpt lat="45.56323" lon="6.34134">
        <ele>1719.51</ele>
        <time>2015-06-06T09:47:30Z</time>
      </trkpt>
      <trkpt lat="45.56341" lon="6.34128">
        <ele>1722.39</ele>
        <time>2015-06-06T09:47:56Z</time>
      </trkpt>
      <trkpt lat="45.5636" lon="6.34124">
        <ele>1722.72</ele>
        <time>2015-06-06T09:48:23Z</time>
      </trkpt>
      <trkpt lat="45.56371" lon="6.34103">
        <ele>1733.02</ele>
        <time>2015-06-06T09:49:18Z</time>
      </trkpt>
      <trkpt lat="45.56386" lon="6.34089">
        <ele>1734.75</ele>
        <time>2015-06-06T09:49:48Z</time>
      </trkpt>
      <trkpt lat="45.56401" lon="6.34074">
        <ele>1737.52</ele>
        <time>2015-06-06T09:50:17Z</time>
      </trkpt>
      <trkpt lat="45.56402" lon="6.34048">
        <ele>1738.83</ele>
        <time>2015-06-06T09:52:23Z</time>
      </trkpt>
      <trkpt lat="45.56407" lon="6.34022">
        <ele>1734.94</ele>
        <time>2015-06-06T09:52:39Z</time>
      </trkpt>
      <trkpt lat="45.56408" lon="6.33996">
        <ele>1735.59</ele>
        <time>2015-06-06T09:52:54Z</time>
      </trkpt>
      <trkpt lat="45.56411" lon="6.3397">
        <ele>1740.46</ele>
        <time>2015-06-06T09:53:16Z</time>
      </trkpt>
      <trkpt lat="45.56419" lon="6.33994">
        <ele>1740.41</ele>
        <time>2015-06-06T09:56:07Z</time>
      </trkpt>
      <trkpt lat="45.56437" lon="6.33989">
        <ele>1757.97</ele>
        <time>2015-06-06T09:56:57Z</time>
      </trkpt>
      <trkpt lat="45.56455" lon="6.33996">
        <ele>1759.77</ele>
        <time>2015-06-06T09:57:19Z</time>
      </trkpt>
      <trkpt lat="45.56453" lon="6.34023">
        <ele>1768.52</ele>
        <time>2015-06-06T09:58:20Z</time>
      </trkpt>
      <trkpt lat="45.56464" lon="6.34044">
        <ele>1774.65</ele>
        <time>2015-06-06T09:59:18Z</time>
      </trkpt>
      <trkpt lat="45.56483" lon="6.34044">
        <ele>1778.78</ele>
        <time>2015-06-06T09:59:51Z</time>
      </trkpt>
      <trkpt lat="45.56501" lon="6.34037">
        <ele>1782.16</ele>
        <time>2015-06-06T10:00:11Z</time>
      </trkpt>
      <trkpt lat="45.56519" lon="6.34036">
        <ele>1783.47</ele>
        <time>2015-06-06T10:00:49Z</time>
      </trkpt>
      <trkpt lat="45.56537" lon="6.34041">
        <ele>1786.41</ele>
        <time>2015-06-06T10:02:31Z</time>
      </trkpt>
      <trkpt lat="45.56518" lon="6.34039">
        <ele>1775.07</ele>
        <time>2015-06-06T10:03:28Z</time>
      </trkpt>
      <trkpt lat="45.56499" lon="6.3404">
        <ele>1775.53</ele>
        <time>2015-06-06T10:04:05Z</time>
      </trkpt>
      <trkpt lat="45.56483" lon="6.34052">
        <ele>1779.03</ele>
        <time>2015-06-06T10:04:40Z</time>
      </trkpt>
      <trkpt lat="45.56489" lon="6.34063">
        <ele>1780.53</ele>
        <time>2015-06-06T10:17:13Z</time>
      </trkpt>
      <trkpt lat="45.56504" lon="6.34076">
        <ele>1794.3</ele>
        <time>2015-06-06T10:22:25Z</time>
      </trkpt>
      <trkpt lat="45.56523" lon="6.34079">
        <ele>1798.02</ele>
        <time>2015-06-06T10:22:47Z</time>
      </trkpt>
      <trkpt lat="45.56541" lon="6.34079">
        <ele>1799.84</ele>
        <time>2015-06-06T10:23:12Z</time>
      </trkpt>
      <trkpt lat="45.56559" lon="6.34076">
        <ele>1808.39</ele>
        <time>2015-06-06T10:23:39Z</time>
      </trkpt>
      <trkpt lat="45.56577" lon="6.34078">
        <ele>1811.66</ele>
        <time>2015-06-06T10:24:17Z</time>
      </trkpt>
      <trkpt lat="45.56595" lon="6.34074">
        <ele>1813.66</ele>
        <time>2015-06-06T10:24:44Z</time>
      </trkpt>
      <trkpt lat="45.56613" lon="6.34078">
        <ele>1814.73</ele>
        <time>2015-06-06T10:25:03Z</time>
      </trkpt>
      <trkpt lat="45.5663" lon="6.34086">
        <ele>1815.4</ele>
        <time>2015-06-06T10:25:25Z</time>
      </trkpt>
      <trkpt lat="45.56648" lon="6.34092">
        <ele>1822.03</ele>
        <time>2015-06-06T10:25:50Z</time>
      </trkpt>
      <trkpt lat="45.56666" lon="6.34097">
        <ele>1823.63</ele>
        <time>2015-06-06T10:26:15Z</time>
      </trkpt>
      <trkpt lat="45.56684" lon="6.34102">
        <ele>1826.31</ele>
        <time>2015-06-06T10:26:35Z</time>
      </trkpt>
      <trkpt lat="45.56703" lon="6.34104">
        <ele>1831.96</ele>
        <time>2015-06-06T10:27:00Z</time>
      </trkpt>
      <trkpt lat="45.56721" lon="6.341">
        <ele>1838.52</ele>
        <time>2015-06-06T10:27:34Z</time>
      </trkpt>
      <trkpt lat="45.5674" lon="6.34099">
        <ele>1839.46</ele>
        <time>2015-06-06T10:27:58Z</time>
      </trkpt>
      <trkpt lat="45.56758" lon="6.34098">
        <ele>1842.51</ele>
        <time>2015-06-06T10:28:18Z</time>
      </trkpt>
      <trkpt lat="45.56776" lon="6.34103">
        <ele>1843.03</ele>
        <time>2015-06-06T10:28:47Z</time>
      </trkpt>
      <trkpt lat="45.56795" lon="6.341">
        <ele>1847.26</ele>
        <time>2015-06-06T10:29:06Z</time>
      </trkpt>
      <trkpt lat="45.56814" lon="6.341">
        <ele>1852.62</ele>
        <time>2015-06-06T10:29:31Z</time>
      </trkpt>
      <trkpt lat="45.56832" lon="6.34103">
        <ele>1861.46</ele>
        <time>2015-06-06T10:30:10Z</time>
      </trkpt>
      <trkpt lat="45.5685" lon="6.34102">
        <ele>1864.59</ele>
        <time>2015-06-06T10:30:44Z</time>
      </trkpt>
      <trkpt lat="45.56869" lon="6.34094">
        <ele>1868.54</ele>
        <time>2015-06-06T10:31:01Z</time>
      </trkpt>
      <trkpt lat="45.56886" lon="6.3409">
        <ele>1871.4</ele>
        <time>2015-06-06T10:31:28Z</time>
      </trkpt>
      <trkpt lat="45.56904" lon="6.34079">
        <ele>1872.8</ele>
        <time>2015-06-06T10:31:50Z</time>
      </trkpt>
      <trkpt lat="45.56921" lon="6.3407">
        <ele>1877.15</ele>
        <time>2015-06-06T10:32:13Z</time>
      </trkpt>
      <trkpt lat="45.56939" lon="6.34063">
        <ele>1883.63</ele>
        <time>2015-06-06T10:32:35Z</time>
      </trkpt>
      <trkpt lat="45.56955" lon="6.34053">
        <ele>1885.39</ele>
        <time>2015-06-06T10:32:56Z</time>
      </trkpt>
      <trkpt lat="45.56973" lon="6.34044">
        <ele>1887.05</ele>
        <time>2015-06-06T10:33:21Z</time>
      </trkpt>
      <trkpt lat="45.56991" lon="6.34039">
        <ele>1887.16</ele>
        <time>2015-06-06T10:33:38Z</time>
      </trkpt>
      <trkpt lat="45.57004" lon="6.34059">
        <ele>1887.21</ele>
        <time>2015-06-06T10:34:11Z</time>
      </trkpt>
      <trkpt lat="45.57004" lon="6.34086">
        <ele>1894.46</ele>
        <time>2015-06-06T10:34:49Z</time>
      </trkpt>
      <trkpt lat="45.56993" lon="6.34107">
        <ele>1896.44</ele>
        <time>2015-06-06T10:36:12Z</time>
      </trkpt>
      <trkpt lat="45.56979" lon="6.34128">
        <ele>1906.53</ele>
        <time>2015-06-06T10:36:54Z</time>
      </trkpt>
      <trkpt lat="45.56975" lon="6.34154">
        <ele>1914.16</ele>
        <time>2015-06-06T10:37:20Z</time>
      </trkpt>
      <trkpt lat="45.56969" lon="6.34179">
        <ele>1921.84</ele>
        <time>2015-06-06T10:38:09Z</time>
      </trkpt>
      <trkpt lat="45.56963" lon="6.34205">
        <ele>1927.53</ele>
        <time>2015-06-06T10:38:39Z</time>
      </trkpt>
      <trkpt lat="45.56956" lon="6.3423">
        <ele>1936</ele>
        <time>2015-06-06T10:39:15Z</time>
      </trkpt>
      <trkpt lat="45.56945" lon="6.3425">
        <ele>1938.03</ele>
        <time>2015-06-06T10:39:41Z</time>
      </trkpt>
      <trkpt lat="45.56932" lon="6.3427">
        <ele>1942.19</ele>
        <time>2015-06-06T10:40:02Z</time>
      </trkpt>
      <trkpt lat="45.56916" lon="6.34282">
        <ele>1947.76</ele>
        <time>2015-06-06T10:40:26Z</time>
      </trkpt>
      <trkpt lat="45.56911" lon="6.34307">
        <ele>1953.44</ele>
        <time>2015-06-06T10:41:22Z</time>
      </trkpt>
      <trkpt lat="45.56908" lon="6.34333">
        <ele>1955.39</ele>
        <time>2015-06-06T10:41:55Z</time>
      </trkpt>
      <trkpt lat="45.56895" lon="6.34352">
        <ele>1956.36</ele>
        <time>2015-06-06T10:42:18Z</time>
      </trkpt>
      <trkpt lat="45.56893" lon="6.34378">
        <ele>1967.12</ele>
        <time>2015-06-06T10:43:11Z</time>
      </trkpt>
      <trkpt lat="45.56878" lon="6.34391">
        <ele>1985.39</ele>
        <time>2015-06-06T10:44:21Z</time>
      </trkpt>
      <trkpt lat="45.56862" lon="6.34403">
        <ele>1990.51</ele>
        <time>2015-06-06T10:44:52Z</time>
      </trkpt>
      <trkpt lat="45.56845" lon="6.34412">
        <ele>1992.06</ele>
        <time>2015-06-06T10:45:42Z</time>
      </trkpt>
      <trkpt lat="45.56836" lon="6.34435">
        <ele>2006.48</ele>
        <time>2015-06-06T10:46:43Z</time>
      </trkpt>
      <trkpt lat="45.56824" lon="6.34455">
        <ele>2011.57</ele>
        <time>2015-06-06T10:47:17Z</time>
      </trkpt>
      <trkpt lat="45.56826" lon="6.34481">
        <ele>2013.58</ele>
        <time>2015-06-06T10:47:58Z</time>
      </trkpt>
      <trkpt lat="45.56827" lon="6.34507">
        <ele>2006.63</ele>
        <time>2015-06-06T10:48:26Z</time>
      </trkpt>
      <trkpt lat="45.56832" lon="6.34533">
        <ele>2008.2</ele>
        <time>2015-06-06T10:48:48Z</time>
      </trkpt>
      <trkpt lat="45.56833" lon="6.3456">
        <ele>2010.28</ele>
        <time>2015-06-06T10:49:19Z</time>
      </trkpt>
      <trkpt lat="45.56835" lon="6.34587">
        <ele>2015.59</ele>
        <time>2015-06-06T10:49:47Z</time>
      </trkpt>
      <trkpt lat="45.56841" lon="6.34611">
        <ele>2019.83</ele>
        <time>2015-06-06T10:50:13Z</time>
      </trkpt>
      <trkpt lat="45.56839" lon="6.34639">
        <ele>2019.31</ele>
        <time>2015-06-06T10:50:29Z</time>
      </trkpt>
      <trkpt lat="45.56848" lon="6.34662">
        <ele>2024.36</ele>
        <time>2015-06-06T10:50:59Z</time>
      </trkpt>
      <trkpt lat="45.56853" lon="6.34686">
        <ele>2025.58</ele>
        <time>2015-06-06T10:51:22Z</time>
      </trkpt>
      <trkpt lat="45.56863" lon="6.3471">
        <ele>2025.83</ele>
        <time>2015-06-06T10:51:40Z</time>
      </trkpt>
      <trkpt lat="45.56857" lon="6.34735">
        <ele>2034.29</ele>
        <time>2015-06-06T10:52:30Z</time>
      </trkpt>
      <trkpt lat="45.56851" lon="6.34759">
        <ele>2043.55</ele>
        <time>2015-06-06T10:53:12Z</time>
      </trkpt>
      <trkpt lat="45.56844" lon="6.34783">
        <ele>2050.4</ele>
        <time>2015-06-06T10:53:41Z</time>
      </trkpt>
      <trkpt lat="45.56832" lon="6.34802">
        <ele>2062.52</ele>
        <time>2015-06-06T10:55:06Z</time>
      </trkpt>
      <trkpt lat="45.56822" lon="6.34827">
        <ele>2065.64</ele>
        <time>2015-06-06T10:56:08Z</time>
      </trkpt>
      <trkpt lat="45.56811" lon="6.34848">
        <ele>2066.32</ele>
        <time>2015-06-06T10:56:29Z</time>
      </trkpt>
      <trkpt lat="45.56798" lon="6.34867">
        <ele>2066.85</ele>
        <time>2015-06-06T10:57:00Z</time>
      </trkpt>
      <trkpt lat="45.56786" lon="6.34888">
        <ele>2069.48</ele>
        <time>2015-06-06T10:57:27Z</time>
      </trkpt>
      <trkpt lat="45.56776" lon="6.3491">
        <ele>2075.32</ele>
        <time>2015-06-06T10:57:47Z</time>
      </trkpt>
      <trkpt lat="45.56767" lon="6.34932">
        <ele>2081.91</ele>
        <time>2015-06-06T10:58:19Z</time>
      </trkpt>
      <trkpt lat="45.56757" lon="6.34954">
        <ele>2087.73</ele>
        <time>2015-06-06T10:58:55Z</time>
      </trkpt>
      <trkpt lat="45.56744" lon="6.34973">
        <ele>2094.86</ele>
        <time>2015-06-06T10:59:45Z</time>
      </trkpt>
      <trkpt lat="45.56739" lon="6.34998">
        <ele>2109.4</ele>
        <time>2015-06-06T11:01:03Z</time>
      </trkpt>
      <trkpt lat="45.56729" lon="6.35021">
        <ele>2116.89</ele>
        <time>2015-06-06T11:02:19Z</time>
      </trkpt>
      <trkpt lat="45.56718" lon="6.35042">
        <ele>2134.89</ele>
        <time>2015-06-06T11:03:22Z</time>
      </trkpt>
      <trkpt lat="45.56702" lon="6.35056">
        <ele>2149.97</ele>
        <time>2015-06-06T11:04:24Z</time>
      </trkpt>
      <trkpt lat="45.56687" lon="6.35071">
        <ele>2154.69</ele>
        <time>2015-06-06T11:05:11Z</time>
      </trkpt>
      <trkpt lat="45.5668" lon="6.35095">
        <ele>2156.02</ele>
        <time>2015-06-06T11:06:03Z</time>
      </trkpt>
      <trkpt lat="45.56677" lon="6.35121">
        <ele>2159.33</ele>
        <time>2015-06-06T11:07:07Z</time>
      </trkpt>
      <trkpt lat="45.56671" lon="6.35146">
        <ele>2168.48</ele>
        <time>2015-06-06T11:08:46Z</time>
      </trkpt>
      <trkpt lat="45.56659" lon="6.35168">
        <ele>2172.03</ele>
        <time>2015-06-06T11:09:15Z</time>
      </trkpt>
      <trkpt lat="45.56643" lon="6.3518">
        <ele>2180.28</ele>
        <time>2015-06-06T11:09:54Z</time>
      </trkpt>
      <trkpt lat="45.56634" lon="6.35203">
        <ele>2186.4</ele>
        <time>2015-06-06T11:10:25Z</time>
      </trkpt>
      <trkpt lat="45.56625" lon="6.35227">
        <ele>2186.29</ele>
        <time>2015-06-06T11:10:53Z</time>
      </trkpt>
      <trkpt lat="45.56616" lon="6.3525">
        <ele>2188.62</ele>
        <time>2015-06-06T11:11:41Z</time>
      </trkpt>
      <trkpt lat="45.56629" lon="6.35269">
        <ele>2194.53</ele>
        <time>2015-06-06T11:12:19Z</time>
      </trkpt>
      <trkpt lat="45.56615" lon="6.35289">
        <ele>2201.48</ele>
        <time>2015-06-06T11:13:04Z</time>
      </trkpt>
      <trkpt lat="45.56597" lon="6.35295">
        <ele>2209.8</ele>
        <time>2015-06-06T11:13:46Z</time>
      </trkpt>
      <trkpt lat="45.56581" lon="6.35283">
        <ele>2214.28</ele>
        <time>2015-06-06T11:14:15Z</time>
      </trkpt>
      <trkpt lat="45.56587" lon="6.35309">
        <ele>2221.78</ele>
        <time>2015-06-06T11:15:33Z</time>
      </trkpt>
      <trkpt lat="45.56601" lon="6.35326">
        <ele>2223.41</ele>
        <time>2015-06-06T11:16:07Z</time>
      </trkpt>
      <trkpt lat="45.56606" lon="6.35352">
        <ele>2231.24</ele>
        <time>2015-06-06T11:18:56Z</time>
      </trkpt>
      <trkpt lat="45.56594" lon="6.35371">
        <ele>2244.28</ele>
        <time>2015-06-06T11:20:21Z</time>
      </trkpt>
      <trkpt lat="45.56577" lon="6.35384">
        <ele>2258.5</ele>
        <time>2015-06-06T11:21:45Z</time>
      </trkpt>
      <trkpt lat="45.56591" lon="6.354">
        <ele>2264.95</ele>
        <time>2015-06-06T11:22:30Z</time>
      </trkpt>
      <trkpt lat="45.566" lon="6.35423">
        <ele>2270.52</ele>
        <time>2015-06-06T11:23:18Z</time>
      </trkpt>
      <trkpt lat="45.56584" lon="6.35439">
        <ele>2280.2</ele>
        <time>2015-06-06T11:24:30Z</time>
      </trkpt>
      <trkpt lat="45.56568" lon="6.3545">
        <ele>2293.07</ele>
        <time>2015-06-06T11:25:30Z</time>
      </trkpt>
      <trkpt lat="45.56565" lon="6.35477">
        <ele>2314.25</ele>
        <time>2015-06-06T11:27:13Z</time>
      </trkpt>
      <trkpt lat="45.56552" lon="6.35494">
        <ele>2321.54</ele>
        <time>2015-06-06T11:28:02Z</time>
      </trkpt>
      <trkpt lat="45.56538" lon="6.35511">
        <ele>2330.66</ele>
        <time>2015-06-06T11:28:52Z</time>
      </trkpt>
      <trkpt lat="45.56527" lon="6.35532">
        <ele>2340.94</ele>
        <time>2015-06-06T11:30:25Z</time>
      </trkpt>
      <trkpt lat="45.56509" lon="6.35532">
        <ele>2347.72</ele>
        <time>2015-06-06T11:31:10Z</time>
      </trkpt>
      <trkpt lat="45.56492" lon="6.35537">
        <ele>2355.12</ele>
        <time>2015-06-06T11:31:55Z</time>
      </trkpt>
      <trkpt lat="45.56481" lon="6.35557">
        <ele>2367.52</ele>
        <time>2015-06-06T11:33:31Z</time>
      </trkpt>
      <trkpt lat="45.5648" lon="6.35557">
        <ele>2370.53</ele>
        <time>2015-06-06T11:35:29Z</time>
      </trkpt>
      <trkpt lat="45.56475" lon="6.35558">
        <ele>2372.53</ele>
        <time>2015-06-06T11:36:33Z</time>
      </trkpt>
      <trkpt lat="45.56479" lon="6.35584">
        <ele>2369.31</ele>
        <time>2015-06-06T11:49:40Z</time>
      </trkpt>
      <trkpt lat="45.56481" lon="6.3561">
        <ele>2361.67</ele>
        <time>2015-06-06T11:50:20Z</time>
      </trkpt>
      <trkpt lat="45.56482" lon="6.35637">
        <ele>2362.25</ele>
        <time>2015-06-06T11:50:36Z</time>
      </trkpt>
      <trkpt lat="45.56486" lon="6.35662">
        <ele>2358.78</ele>
        <time>2015-06-06T11:50:58Z</time>
      </trkpt>
      <trkpt lat="45.56492" lon="6.35688">
        <ele>2364.18</ele>
        <time>2015-06-06T11:51:18Z</time>
      </trkpt>
      <trkpt lat="45.56486" lon="6.35713">
        <ele>2365.28</ele>
        <time>2015-06-06T11:51:40Z</time>
      </trkpt>
      <trkpt lat="45.56487" lon="6.35739">
        <ele>2362.68</ele>
        <time>2015-06-06T11:52:03Z</time>
      </trkpt>
      <trkpt lat="45.56497" lon="6.35761">
        <ele>2366.33</ele>
        <time>2015-06-06T11:52:29Z</time>
      </trkpt>
      <trkpt lat="45.56509" lon="6.35782">
        <ele>2366.67</ele>
        <time>2015-06-06T11:52:59Z</time>
      </trkpt>
      <trkpt lat="45.56524" lon="6.35798">
        <ele>2367.62</ele>
        <time>2015-06-06T11:53:18Z</time>
      </trkpt>
      <trkpt lat="45.5653" lon="6.35822">
        <ele>2362.36</ele>
        <time>2015-06-06T11:53:50Z</time>
      </trkpt>
      <trkpt lat="45.56529" lon="6.35848">
        <ele>2349.63</ele>
        <time>2015-06-06T11:54:40Z</time>
      </trkpt>
      <trkpt lat="45.56527" lon="6.35874">
        <ele>2346.24</ele>
        <time>2015-06-06T11:55:05Z</time>
      </trkpt>
      <trkpt lat="45.56529" lon="6.359">
        <ele>2345.28</ele>
        <time>2015-06-06T11:57:33Z</time>
      </trkpt>
      <trkpt lat="45.56533" lon="6.35926">
        <ele>2349.18</ele>
        <time>2015-06-06T11:58:06Z</time>
      </trkpt>
      <trkpt lat="45.56541" lon="6.35951">
        <ele>2342.96</ele>
        <time>2015-06-06T11:58:26Z</time>
      </trkpt>
      <trkpt lat="45.56547" lon="6.35976">
        <ele>2339.43</ele>
        <time>2015-06-06T11:58:53Z</time>
      </trkpt>
      <trkpt lat="45.56556" lon="6.35998">
        <ele>2346.18</ele>
        <time>2015-06-06T11:59:36Z</time>
      </trkpt>
      <trkpt lat="45.56556" lon="6.36026">
        <ele>2354.41</ele>
        <time>2015-06-06T12:00:31Z</time>
      </trkpt>
      <trkpt lat="45.56555" lon="6.36051">
        <ele>2369.05</ele>
        <time>2015-06-06T12:03:12Z</time>
      </trkpt>
      <trkpt lat="45.56563" lon="6.36075">
        <ele>2372.13</ele>
        <time>2015-06-06T12:07:39Z</time>
      </trkpt>
      <trkpt lat="45.56563" lon="6.36101">
        <ele>2399.4</ele>
        <time>2015-06-06T12:11:11Z</time>
      </trkpt>
      <trkpt lat="45.5657" lon="6.36126">
        <ele>2405.78</ele>
        <time>2015-06-06T12:12:02Z</time>
      </trkpt>
      <trkpt lat="45.56577" lon="6.3615">
        <ele>2411.01</ele>
        <time>2015-06-06T12:12:39Z</time>
      </trkpt>
      <trkpt lat="45.56585" lon="6.36173">
        <ele>2413.57</ele>
        <time>2015-06-06T12:13:06Z</time>
      </trkpt>
      <trkpt lat="45.56596" lon="6.36194">
        <ele>2420.51</ele>
        <time>2015-06-06T12:13:40Z</time>
      </trkpt>
      <trkpt lat="45.56604" lon="6.36218">
        <ele>2427.4</ele>
        <time>2015-06-06T12:14:36Z</time>
      </trkpt>
      <trkpt lat="45.56615" lon="6.36238">
        <ele>2434.53</ele>
        <time>2015-06-06T12:15:21Z</time>
      </trkpt>
      <trkpt lat="45.56625" lon="6.36261">
        <ele>2437.54</ele>
        <time>2015-06-06T12:16:05Z</time>
      </trkpt>
      <trkpt lat="45.56628" lon="6.36287">
        <ele>2449.98</ele>
        <time>2015-06-06T12:16:51Z</time>
      </trkpt>
      <trkpt lat="45.56623" lon="6.36313">
        <ele>2455.66</ele>
        <time>2015-06-06T12:17:25Z</time>
      </trkpt>
      <trkpt lat="45.5662" lon="6.3634">
        <ele>2461.17</ele>
        <time>2015-06-06T12:17:54Z</time>
      </trkpt>
      <trkpt lat="45.56621" lon="6.36365">
        <ele>2463.47</ele>
        <time>2015-06-06T12:18:27Z</time>
      </trkpt>
      <trkpt lat="45.56626" lon="6.36391">
        <ele>2471.49</ele>
        <time>2015-06-06T12:19:11Z</time>
      </trkpt>
      <trkpt lat="45.56631" lon="6.36416">
        <ele>2476.66</ele>
        <time>2015-06-06T12:20:05Z</time>
      </trkpt>
      <trkpt lat="45.5664" lon="6.3644">
        <ele>2479.51</ele>
        <time>2015-06-06T12:20:55Z</time>
      </trkpt>
      <trkpt lat="45.56641" lon="6.36466">
        <ele>2485.16</ele>
        <time>2015-06-06T12:21:29Z</time>
      </trkpt>
      <trkpt lat="45.56644" lon="6.36469">
        <ele>2488.53</ele>
        <time>2015-06-06T12:22:51Z</time>
      </trkpt>
      <trkpt lat="45.56645" lon="6.36469">
        <ele>2488.53</ele>
        <time>2015-06-06T12:23:11Z</time>
      </trkpt>
      <trkpt lat="45.56647" lon="6.36466">
        <ele>2486.53</ele>
        <time>2015-06-06T12:24:17Z</time>
      </trkpt>
      <trkpt lat="45.56645" lon="6.36469">
        <ele>2489.53</ele>
        <time>2015-06-06T12:25:52Z</time>
      </trkpt>
      <trkpt lat="45.56648" lon="6.36471">
        <ele>2487.53</ele>
        <time>2015-06-06T12:34:40Z</time>
      </trkpt>
      <trkpt lat="45.56641" lon="6.36447">
        <ele>2475.69</ele>
        <time>2015-06-06T12:40:46Z</time>
      </trkpt>
      <trkpt lat="45.56633" lon="6.36423">
        <ele>2477.97</ele>
        <time>2015-06-06T12:42:00Z</time>
      </trkpt>
      <trkpt lat="45.56628" lon="6.36398">
        <ele>2471.1</ele>
        <time>2015-06-06T12:42:30Z</time>
      </trkpt>
      <trkpt lat="45.56627" lon="6.36372">
        <ele>2461.51</ele>
        <time>2015-06-06T12:42:57Z</time>
      </trkpt>
      <trkpt lat="45.56622" lon="6.36346">
        <ele>2456.55</ele>
        <time>2015-06-06T12:43:25Z</time>
      </trkpt>
      <trkpt lat="45.56626" lon="6.36321">
        <ele>2452.81</ele>
        <time>2015-06-06T12:43:45Z</time>
      </trkpt>
      <trkpt lat="45.56629" lon="6.36294">
        <ele>2444.69</ele>
        <time>2015-06-06T12:44:09Z</time>
      </trkpt>
      <trkpt lat="45.56625" lon="6.36269">
        <ele>2440.1</ele>
        <time>2015-06-06T12:44:32Z</time>
      </trkpt>
      <trkpt lat="45.56619" lon="6.36244">
        <ele>2433.3</ele>
        <time>2015-06-06T12:45:32Z</time>
      </trkpt>
      <trkpt lat="45.56608" lon="6.36224">
        <ele>2428.71</ele>
        <time>2015-06-06T12:45:57Z</time>
      </trkpt>
      <trkpt lat="45.56598" lon="6.36202">
        <ele>2418.54</ele>
        <time>2015-06-06T12:46:30Z</time>
      </trkpt>
      <trkpt lat="45.56589" lon="6.36178">
        <ele>2415.03</ele>
        <time>2015-06-06T12:47:04Z</time>
      </trkpt>
      <trkpt lat="45.56579" lon="6.36155">
        <ele>2407</ele>
        <time>2015-06-06T12:47:23Z</time>
      </trkpt>
      <trkpt lat="45.56569" lon="6.36133">
        <ele>2404.21</ele>
        <time>2015-06-06T12:47:41Z</time>
      </trkpt>
      <trkpt lat="45.56561" lon="6.3611">
        <ele>2403.99</ele>
        <time>2015-06-06T12:48:12Z</time>
      </trkpt>
      <trkpt lat="45.56568" lon="6.36086">
        <ele>2385.97</ele>
        <time>2015-06-06T12:49:38Z</time>
      </trkpt>
      <trkpt lat="45.56556" lon="6.36066">
        <ele>2371.44</ele>
        <time>2015-06-06T12:50:46Z</time>
      </trkpt>
      <trkpt lat="45.56555" lon="6.3604">
        <ele>2363.72</ele>
        <time>2015-06-06T12:52:01Z</time>
      </trkpt>
      <trkpt lat="45.56561" lon="6.36015">
        <ele>2345.52</ele>
        <time>2015-06-06T12:53:20Z</time>
      </trkpt>
      <trkpt lat="45.56555" lon="6.3599">
        <ele>2339.27</ele>
        <time>2015-06-06T12:54:38Z</time>
      </trkpt>
      <trkpt lat="45.56547" lon="6.35966">
        <ele>2343.47</ele>
        <time>2015-06-06T12:55:02Z</time>
      </trkpt>
      <trkpt lat="45.56538" lon="6.35943">
        <ele>2342.25</ele>
        <time>2015-06-06T12:55:26Z</time>
      </trkpt>
      <trkpt lat="45.56537" lon="6.35917">
        <ele>2339.8</ele>
        <time>2015-06-06T12:55:53Z</time>
      </trkpt>
      <trkpt lat="45.56534" lon="6.35889">
        <ele>2340.54</ele>
        <time>2015-06-06T12:56:35Z</time>
      </trkpt>
      <trkpt lat="45.56528" lon="6.35864">
        <ele>2339.55</ele>
        <time>2015-06-06T12:57:06Z</time>
      </trkpt>
      <trkpt lat="45.56523" lon="6.35839">
        <ele>2338.5</ele>
        <time>2015-06-06T12:57:29Z</time>
      </trkpt>
      <trkpt lat="45.56513" lon="6.35817">
        <ele>2339.35</ele>
        <time>2015-06-06T12:57:52Z</time>
      </trkpt>
      <trkpt lat="45.56495" lon="6.3581">
        <ele>2343.58</ele>
        <time>2015-06-06T12:58:44Z</time>
      </trkpt>
      <trkpt lat="45.56489" lon="6.35786">
        <ele>2342.26</ele>
        <time>2015-06-06T12:59:04Z</time>
      </trkpt>
      <trkpt lat="45.56479" lon="6.35764">
        <ele>2341.07</ele>
        <time>2015-06-06T12:59:27Z</time>
      </trkpt>
      <trkpt lat="45.56467" lon="6.35743">
        <ele>2337.57</ele>
        <time>2015-06-06T12:59:52Z</time>
      </trkpt>
      <trkpt lat="45.56454" lon="6.35724">
        <ele>2342.84</ele>
        <time>2015-06-06T13:00:33Z</time>
      </trkpt>
      <trkpt lat="45.56441" lon="6.35707">
        <ele>2337.23</ele>
        <time>2015-06-06T13:01:16Z</time>
      </trkpt>
      <trkpt lat="45.56423" lon="6.35709">
        <ele>2332.07</ele>
        <time>2015-06-06T13:01:46Z</time>
      </trkpt>
      <trkpt lat="45.56405" lon="6.35709">
        <ele>2320.57</ele>
        <time>2015-06-06T13:02:23Z</time>
      </trkpt>
      <trkpt lat="45.56392" lon="6.3569">
        <ele>2316.42</ele>
        <time>2015-06-06T13:03:23Z</time>
      </trkpt>
      <trkpt lat="45.5638" lon="6.35669">
        <ele>2316.1</ele>
        <time>2015-06-06T13:03:59Z</time>
      </trkpt>
      <trkpt lat="45.56369" lon="6.35649">
        <ele>2312.03</ele>
        <time>2015-06-06T13:04:31Z</time>
      </trkpt>
      <trkpt lat="45.56352" lon="6.35638">
        <ele>2302.68</ele>
        <time>2015-06-06T13:05:58Z</time>
      </trkpt>
      <trkpt lat="45.56347" lon="6.35613">
        <ele>2298.64</ele>
        <time>2015-06-06T13:06:16Z</time>
      </trkpt>
      <trkpt lat="45.56337" lon="6.35591">
        <ele>2284.6</ele>
        <time>2015-06-06T13:07:01Z</time>
      </trkpt>
      <trkpt lat="45.56328" lon="6.35569">
        <ele>2281.35</ele>
        <time>2015-06-06T13:07:25Z</time>
      </trkpt>
      <trkpt lat="45.56323" lon="6.35544">
        <ele>2276.18</ele>
        <time>2015-06-06T13:07:39Z</time>
      </trkpt>
      <trkpt lat="45.56313" lon="6.3552">
        <ele>2272.39</ele>
        <time>2015-06-06T13:07:55Z</time>
      </trkpt>
      <trkpt lat="45.56299" lon="6.35504">
        <ele>2265.2</ele>
        <time>2015-06-06T13:08:23Z</time>
      </trkpt>
      <trkpt lat="45.56282" lon="6.35495">
        <ele>2269.14</ele>
        <time>2015-06-06T13:08:43Z</time>
      </trkpt>
      <trkpt lat="45.56265" lon="6.35483">
        <ele>2258.27</ele>
        <time>2015-06-06T13:09:10Z</time>
      </trkpt>
      <trkpt lat="45.56247" lon="6.35481">
        <ele>2257.05</ele>
        <time>2015-06-06T13:09:52Z</time>
      </trkpt>
      <trkpt lat="45.56234" lon="6.35461">
        <ele>2247.04</ele>
        <time>2015-06-06T13:10:17Z</time>
      </trkpt>
      <trkpt lat="45.56221" lon="6.35441">
        <ele>2241.81</ele>
        <time>2015-06-06T13:10:35Z</time>
      </trkpt>
      <trkpt lat="45.56205" lon="6.35427">
        <ele>2234.34</ele>
        <time>2015-06-06T13:11:36Z</time>
      </trkpt>
      <trkpt lat="45.56198" lon="6.35403">
        <ele>2227.45</ele>
        <time>2015-06-06T13:11:53Z</time>
      </trkpt>
      <trkpt lat="45.56181" lon="6.35394">
        <ele>2210.06</ele>
        <time>2015-06-06T13:13:03Z</time>
      </trkpt>
      <trkpt lat="45.56166" lon="6.35408">
        <ele>2204.27</ele>
        <time>2015-06-06T13:13:30Z</time>
      </trkpt>
      <trkpt lat="45.56151" lon="6.35392">
        <ele>2200.45</ele>
        <time>2015-06-06T13:13:57Z</time>
      </trkpt>
      <trkpt lat="45.56138" lon="6.35372">
        <ele>2193.59</ele>
        <time>2015-06-06T13:14:58Z</time>
      </trkpt>
      <trkpt lat="45.56121" lon="6.35367">
        <ele>2184.52</ele>
        <time>2015-06-06T13:15:41Z</time>
      </trkpt>
      <trkpt lat="45.56108" lon="6.35348">
        <ele>2177.43</ele>
        <time>2015-06-06T13:16:14Z</time>
      </trkpt>
      <trkpt lat="45.56092" lon="6.35338">
        <ele>2172.64</ele>
        <time>2015-06-06T13:16:41Z</time>
      </trkpt>
      <trkpt lat="45.56081" lon="6.35316">
        <ele>2162.01</ele>
        <time>2015-06-06T13:17:12Z</time>
      </trkpt>
      <trkpt lat="45.56064" lon="6.35307">
        <ele>2150.72</ele>
        <time>2015-06-06T13:17:37Z</time>
      </trkpt>
      <trkpt lat="45.56046" lon="6.35312">
        <ele>2154.92</ele>
        <time>2015-06-06T13:17:55Z</time>
      </trkpt>
      <trkpt lat="45.56028" lon="6.35319">
        <ele>2148.23</ele>
        <time>2015-06-06T13:18:20Z</time>
      </trkpt>
      <trkpt lat="45.56008" lon="6.35318">
        <ele>2145.01</ele>
        <time>2015-06-06T13:18:38Z</time>
      </trkpt>
      <trkpt lat="45.5599" lon="6.3532">
        <ele>2142.34</ele>
        <time>2015-06-06T13:18:56Z</time>
      </trkpt>
      <trkpt lat="45.55972" lon="6.35321">
        <ele>2134.46</ele>
        <time>2015-06-06T13:19:15Z</time>
      </trkpt>
      <trkpt lat="45.55955" lon="6.35328">
        <ele>2132.72</ele>
        <time>2015-06-06T13:19:34Z</time>
      </trkpt>
      <trkpt lat="45.55937" lon="6.35335">
        <ele>2130.23</ele>
        <time>2015-06-06T13:19:54Z</time>
      </trkpt>
      <trkpt lat="45.55918" lon="6.35334">
        <ele>2127.41</ele>
        <time>2015-06-06T13:20:25Z</time>
      </trkpt>
      <trkpt lat="45.559" lon="6.3533">
        <ele>2117.36</ele>
        <time>2015-06-06T13:21:24Z</time>
      </trkpt>
      <trkpt lat="45.55881" lon="6.35332">
        <ele>2110.72</ele>
        <time>2015-06-06T13:21:48Z</time>
      </trkpt>
      <trkpt lat="45.55864" lon="6.35338">
        <ele>2104.16</ele>
        <time>2015-06-06T13:22:20Z</time>
      </trkpt>
      <trkpt lat="45.55849" lon="6.35353">
        <ele>2092.54</ele>
        <time>2015-06-06T13:22:52Z</time>
      </trkpt>
      <trkpt lat="45.55833" lon="6.35368">
        <ele>2095.69</ele>
        <time>2015-06-06T13:23:15Z</time>
      </trkpt>
      <trkpt lat="45.55818" lon="6.35384">
        <ele>2084.54</ele>
        <time>2015-06-06T13:23:47Z</time>
      </trkpt>
      <trkpt lat="45.55807" lon="6.35405">
        <ele>2079.11</ele>
        <time>2015-06-06T13:24:16Z</time>
      </trkpt>
      <trkpt lat="45.55796" lon="6.35427">
        <ele>2077.93</ele>
        <time>2015-06-06T13:24:38Z</time>
      </trkpt>
      <trkpt lat="45.55803" lon="6.3545">
        <ele>2058.58</ele>
        <time>2015-06-06T13:25:07Z</time>
      </trkpt>
      <trkpt lat="45.55793" lon="6.35473">
        <ele>2048.53</ele>
        <time>2015-06-06T13:25:56Z</time>
      </trkpt>
      <trkpt lat="45.55809" lon="6.35485">
        <ele>2039.13</ele>
        <time>2015-06-06T13:26:14Z</time>
      </trkpt>
      <trkpt lat="45.55806" lon="6.3551">
        <ele>2037.1</ele>
        <time>2015-06-06T13:26:40Z</time>
      </trkpt>
      <trkpt lat="45.55801" lon="6.3554">
        <ele>2043.66</ele>
        <time>2015-06-06T13:26:58Z</time>
      </trkpt>
      <trkpt lat="45.55808" lon="6.35565">
        <ele>2024.23</ele>
        <time>2015-06-06T13:27:27Z</time>
      </trkpt>
      <trkpt lat="45.55808" lon="6.35592">
        <ele>2021.22</ele>
        <time>2015-06-06T13:27:48Z</time>
      </trkpt>
      <trkpt lat="45.5581" lon="6.35617">
        <ele>2013.89</ele>
        <time>2015-06-06T13:28:39Z</time>
      </trkpt>
      <trkpt lat="45.55805" lon="6.35643">
        <ele>2009.07</ele>
        <time>2015-06-06T13:29:09Z</time>
      </trkpt>
      <trkpt lat="45.55803" lon="6.35669">
        <ele>2011.46</ele>
        <time>2015-06-06T13:29:35Z</time>
      </trkpt>
      <trkpt lat="45.55795" lon="6.35692">
        <ele>2013.53</ele>
        <time>2015-06-06T13:30:03Z</time>
      </trkpt>
      <trkpt lat="45.55789" lon="6.35717">
        <ele>2016.79</ele>
        <time>2015-06-06T13:31:16Z</time>
      </trkpt>
      <trkpt lat="45.55798" lon="6.3574">
        <ele>2014.43</ele>
        <time>2015-06-06T13:31:52Z</time>
      </trkpt>
      <trkpt lat="45.55815" lon="6.35749">
        <ele>2011.34</ele>
        <time>2015-06-06T13:32:25Z</time>
      </trkpt>
      <trkpt lat="45.55821" lon="6.35774">
        <ele>2018.7</ele>
        <time>2015-06-06T13:33:23Z</time>
      </trkpt>
      <trkpt lat="45.55825" lon="6.35799">
        <ele>2020.01</ele>
        <time>2015-06-06T13:33:40Z</time>
      </trkpt>
      <trkpt lat="45.5583" lon="6.35825">
        <ele>2022.24</ele>
        <time>2015-06-06T13:34:00Z</time>
      </trkpt>
      <trkpt lat="45.55834" lon="6.3585">
        <ele>2020.71</ele>
        <time>2015-06-06T13:34:23Z</time>
      </trkpt>
      <trkpt lat="45.55832" lon="6.35877">
        <ele>2012.3</ele>
        <time>2015-06-06T13:34:47Z</time>
      </trkpt>
      <trkpt lat="45.55841" lon="6.35899">
        <ele>2015.56</ele>
        <time>2015-06-06T13:35:00Z</time>
      </trkpt>
      <trkpt lat="45.55844" lon="6.35925">
        <ele>2017.53</ele>
        <time>2015-06-06T13:35:16Z</time>
      </trkpt>
      <trkpt lat="45.55846" lon="6.35952">
        <ele>2022.73</ele>
        <time>2015-06-06T13:35:31Z</time>
      </trkpt>
      <trkpt lat="45.55849" lon="6.35979">
        <ele>2030.8</ele>
        <time>2015-06-06T13:36:20Z</time>
      </trkpt>
      <trkpt lat="45.55853" lon="6.36004">
        <ele>2033.66</ele>
        <time>2015-06-06T13:36:56Z</time>
      </trkpt>
      <trkpt lat="45.55856" lon="6.3603">
        <ele>2024.3</ele>
        <time>2015-06-06T13:37:21Z</time>
      </trkpt>
      <trkpt lat="45.55864" lon="6.36054">
        <ele>2016.7</ele>
        <time>2015-06-06T13:37:45Z</time>
      </trkpt>
      <trkpt lat="45.55872" lon="6.36078">
        <ele>2021.94</ele>
        <time>2015-06-06T13:37:58Z</time>
      </trkpt>
      <trkpt lat="45.55872" lon="6.36103">
        <ele>2022.55</ele>
        <time>2015-06-06T13:38:16Z</time>
      </trkpt>
      <trkpt lat="45.55879" lon="6.36128">
        <ele>2027.26</ele>
        <time>2015-06-06T13:38:34Z</time>
      </trkpt>
      <trkpt lat="45.55874" lon="6.36152">
        <ele>2026</ele>
        <time>2015-06-06T13:38:52Z</time>
      </trkpt>
      <trkpt lat="45.55883" lon="6.36176">
        <ele>2024.59</ele>
        <time>2015-06-06T13:39:10Z</time>
      </trkpt>
      <trkpt lat="45.55891" lon="6.362">
        <ele>2024.9</ele>
        <time>2015-06-06T13:39:52Z</time>
      </trkpt>
      <trkpt lat="45.55894" lon="6.36226">
        <ele>2016.31</ele>
        <time>2015-06-06T13:40:35Z</time>
      </trkpt>
      <trkpt lat="45.55895" lon="6.36252">
        <ele>2014.54</ele>
        <time>2015-06-06T13:40:59Z</time>
      </trkpt>
      <trkpt lat="45.55901" lon="6.36278">
        <ele>2005.74</ele>
        <time>2015-06-06T13:41:21Z</time>
      </trkpt>
      <trkpt lat="45.55899" lon="6.36304">
        <ele>2004.49</ele>
        <time>2015-06-06T13:41:38Z</time>
      </trkpt>
      <trkpt lat="45.55905" lon="6.36329">
        <ele>2009.48</ele>
        <time>2015-06-06T13:41:56Z</time>
      </trkpt>
      <trkpt lat="45.55906" lon="6.36356">
        <ele>2012.09</ele>
        <time>2015-06-06T13:43:11Z</time>
      </trkpt>
      <trkpt lat="45.55904" lon="6.36382">
        <ele>2002.07</ele>
        <time>2015-06-06T13:43:30Z</time>
      </trkpt>
      <trkpt lat="45.55901" lon="6.36409">
        <ele>1989.8</ele>
        <time>2015-06-06T13:43:54Z</time>
      </trkpt>
      <trkpt lat="45.55903" lon="6.36434">
        <ele>1982.19</ele>
        <time>2015-06-06T13:44:15Z</time>
      </trkpt>
      <trkpt lat="45.55893" lon="6.36456">
        <ele>1976.14</ele>
        <time>2015-06-06T13:44:41Z</time>
      </trkpt>
      <trkpt lat="45.55883" lon="6.36479">
        <ele>1970.47</ele>
        <time>2015-06-06T13:44:59Z</time>
      </trkpt>
      <trkpt lat="45.5589" lon="6.36504">
        <ele>1969.17</ele>
        <time>2015-06-06T13:45:19Z</time>
      </trkpt>
      <trkpt lat="45.55889" lon="6.36531">
        <ele>1968.84</ele>
        <time>2015-06-06T13:45:38Z</time>
      </trkpt>
      <trkpt lat="45.55884" lon="6.36556">
        <ele>1961.73</ele>
        <time>2015-06-06T13:45:58Z</time>
      </trkpt>
      <trkpt lat="45.5588" lon="6.36581">
        <ele>1952.29</ele>
        <time>2015-06-06T13:46:21Z</time>
      </trkpt>
      <trkpt lat="45.55879" lon="6.36608">
        <ele>1952.09</ele>
        <time>2015-06-06T13:46:36Z</time>
      </trkpt>
      <trkpt lat="45.55874" lon="6.36633">
        <ele>1952.01</ele>
        <time>2015-06-06T13:46:53Z</time>
      </trkpt>
      <trkpt lat="45.55872" lon="6.36659">
        <ele>1953.97</ele>
        <time>2015-06-06T13:47:10Z</time>
      </trkpt>
      <trkpt lat="45.55873" lon="6.36685">
        <ele>1953.99</ele>
        <time>2015-06-06T13:47:25Z</time>
      </trkpt>
      <trkpt lat="45.55871" lon="6.36711">
        <ele>1949.62</ele>
        <time>2015-06-06T13:47:42Z</time>
      </trkpt>
      <trkpt lat="45.55864" lon="6.36735">
        <ele>1946.43</ele>
        <time>2015-06-06T13:48:01Z</time>
      </trkpt>
      <trkpt lat="45.55858" lon="6.3676">
        <ele>1949.87</ele>
        <time>2015-06-06T13:48:33Z</time>
      </trkpt>
      <trkpt lat="45.55846" lon="6.3678">
        <ele>1953.06</ele>
        <time>2015-06-06T13:48:50Z</time>
      </trkpt>
      <trkpt lat="45.55834" lon="6.368">
        <ele>1954.15</ele>
        <time>2015-06-06T13:49:11Z</time>
      </trkpt>
      <trkpt lat="45.5582" lon="6.36817">
        <ele>1951.08</ele>
        <time>2015-06-06T13:49:31Z</time>
      </trkpt>
      <trkpt lat="45.55803" lon="6.36828">
        <ele>1946.59</ele>
        <time>2015-06-06T13:49:47Z</time>
      </trkpt>
      <trkpt lat="45.55787" lon="6.36842">
        <ele>1945.44</ele>
        <time>2015-06-06T13:50:03Z</time>
      </trkpt>
      <trkpt lat="45.55774" lon="6.36862">
        <ele>1942.03</ele>
        <time>2015-06-06T13:50:18Z</time>
      </trkpt>
      <trkpt lat="45.5576" lon="6.36879">
        <ele>1931.99</ele>
        <time>2015-06-06T13:50:37Z</time>
      </trkpt>
      <trkpt lat="45.55744" lon="6.36892">
        <ele>1935.22</ele>
        <time>2015-06-06T13:51:19Z</time>
      </trkpt>
      <trkpt lat="45.55727" lon="6.36904">
        <ele>1927.74</ele>
        <time>2015-06-06T13:51:39Z</time>
      </trkpt>
      <trkpt lat="45.55712" lon="6.36919">
        <ele>1928.61</ele>
        <time>2015-06-06T13:51:53Z</time>
      </trkpt>
      <trkpt lat="45.557" lon="6.36939">
        <ele>1928.29</ele>
        <time>2015-06-06T13:52:11Z</time>
      </trkpt>
      <trkpt lat="45.55684" lon="6.36952">
        <ele>1928.96</ele>
        <time>2015-06-06T13:52:28Z</time>
      </trkpt>
      <trkpt lat="45.55671" lon="6.3697">
        <ele>1932.81</ele>
        <time>2015-06-06T13:52:56Z</time>
      </trkpt>
      <trkpt lat="45.5566" lon="6.3699">
        <ele>1935.87</ele>
        <time>2015-06-06T13:53:21Z</time>
      </trkpt>
      <trkpt lat="45.55654" lon="6.37016">
        <ele>1930.39</ele>
        <time>2015-06-06T13:53:55Z</time>
      </trkpt>
      <trkpt lat="45.55653" lon="6.37042">
        <ele>1934.63</ele>
        <time>2015-06-06T13:54:23Z</time>
      </trkpt>
      <trkpt lat="45.5566" lon="6.37066">
        <ele>1935.96</ele>
        <time>2015-06-06T13:54:46Z</time>
      </trkpt>
      <trkpt lat="45.55665" lon="6.37091">
        <ele>1939.63</ele>
        <time>2015-06-06T13:55:11Z</time>
      </trkpt>
      <trkpt lat="45.55666" lon="6.37117">
        <ele>1933.57</ele>
        <time>2015-06-06T13:56:52Z</time>
      </trkpt>
      <trkpt lat="45.55661" lon="6.37143">
        <ele>1920.8</ele>
        <time>2015-06-06T13:57:14Z</time>
      </trkpt>
      <trkpt lat="45.55667" lon="6.37168">
        <ele>1917.09</ele>
        <time>2015-06-06T13:57:40Z</time>
      </trkpt>
      <trkpt lat="45.55665" lon="6.37195">
        <ele>1909.76</ele>
        <time>2015-06-06T13:58:02Z</time>
      </trkpt>
      <trkpt lat="45.55657" lon="6.37218">
        <ele>1906.45</ele>
        <time>2015-06-06T13:58:22Z</time>
      </trkpt>
      <trkpt lat="45.55642" lon="6.37237">
        <ele>1902.65</ele>
        <time>2015-06-06T13:58:59Z</time>
      </trkpt>
      <trkpt lat="45.55629" lon="6.37257">
        <ele>1891.77</ele>
        <time>2015-06-06T13:59:24Z</time>
      </trkpt>
      <trkpt lat="45.55618" lon="6.37278">
        <ele>1883.79</ele>
        <time>2015-06-06T13:59:47Z</time>
      </trkpt>
      <trkpt lat="45.55612" lon="6.37302">
        <ele>1878.32</ele>
        <time>2015-06-06T14:00:09Z</time>
      </trkpt>
      <trkpt lat="45.55612" lon="6.37329">
        <ele>1866.9</ele>
        <time>2015-06-06T14:00:31Z</time>
      </trkpt>
      <trkpt lat="45.55607" lon="6.37354">
        <ele>1867.81</ele>
        <time>2015-06-06T14:00:49Z</time>
      </trkpt>
      <trkpt lat="45.55601" lon="6.37378">
        <ele>1865.63</ele>
        <time>2015-06-06T14:01:08Z</time>
      </trkpt>
      <trkpt lat="45.55582" lon="6.37382">
        <ele>1862.47</ele>
        <time>2015-06-06T14:01:25Z</time>
      </trkpt>
      <trkpt lat="45.55564" lon="6.37385">
        <ele>1861.37</ele>
        <time>2015-06-06T14:01:46Z</time>
      </trkpt>
      <trkpt lat="45.55545" lon="6.37394">
        <ele>1852.44</ele>
        <time>2015-06-06T14:02:17Z</time>
      </trkpt>
      <trkpt lat="45.55528" lon="6.37402">
        <ele>1841.25</ele>
        <time>2015-06-06T14:02:44Z</time>
      </trkpt>
      <trkpt lat="45.55509" lon="6.374">
        <ele>1839.32</ele>
        <time>2015-06-06T14:03:04Z</time>
      </trkpt>
      <trkpt lat="45.55489" lon="6.37403">
        <ele>1835.94</ele>
        <time>2015-06-06T14:03:21Z</time>
      </trkpt>
      <trkpt lat="45.55474" lon="6.37419">
        <ele>1828.46</ele>
        <time>2015-06-06T14:03:47Z</time>
      </trkpt>
      <trkpt lat="45.55456" lon="6.37425">
        <ele>1819.94</ele>
        <time>2015-06-06T14:04:09Z</time>
      </trkpt>
      <trkpt lat="45.5544" lon="6.37437">
        <ele>1810.61</ele>
        <time>2015-06-06T14:04:38Z</time>
      </trkpt>
      <trkpt lat="45.55422" lon="6.37447">
        <ele>1802.36</ele>
        <time>2015-06-06T14:04:58Z</time>
      </trkpt>
      <trkpt lat="45.55405" lon="6.37458">
        <ele>1799.16</ele>
        <time>2015-06-06T14:05:15Z</time>
      </trkpt>
      <trkpt lat="45.55388" lon="6.37471">
        <ele>1795.66</ele>
        <time>2015-06-06T14:05:35Z</time>
      </trkpt>
      <trkpt lat="45.55369" lon="6.37479">
        <ele>1793.19</ele>
        <time>2015-06-06T14:05:53Z</time>
      </trkpt>
      <trkpt lat="45.55351" lon="6.37478">
        <ele>1791.77</ele>
        <time>2015-06-06T14:06:43Z</time>
      </trkpt>
      <trkpt lat="45.55333" lon="6.37472">
        <ele>1786.42</ele>
        <time>2015-06-06T14:07:04Z</time>
      </trkpt>
      <trkpt lat="45.55325" lon="6.37496">
        <ele>1774.55</ele>
        <time>2015-06-06T14:07:48Z</time>
      </trkpt>
      <trkpt lat="45.55307" lon="6.37506">
        <ele>1769.93</ele>
        <time>2015-06-06T14:08:06Z</time>
      </trkpt>
      <trkpt lat="45.55298" lon="6.37529">
        <ele>1762.34</ele>
        <time>2015-06-06T14:08:25Z</time>
      </trkpt>
      <trkpt lat="45.55283" lon="6.37544">
        <ele>1754.79</ele>
        <time>2015-06-06T14:08:43Z</time>
      </trkpt>
      <trkpt lat="45.55267" lon="6.37554">
        <ele>1749.07</ele>
        <time>2015-06-06T14:09:02Z</time>
      </trkpt>
      <trkpt lat="45.55251" lon="6.37567">
        <ele>1745.03</ele>
        <time>2015-06-06T14:09:19Z</time>
      </trkpt>
      <trkpt lat="45.55235" lon="6.37581">
        <ele>1740.09</ele>
        <time>2015-06-06T14:09:40Z</time>
      </trkpt>
      <trkpt lat="45.55219" lon="6.37596">
        <ele>1734.72</ele>
        <time>2015-06-06T14:10:02Z</time>
      </trkpt>
      <trkpt lat="45.55203" lon="6.37609">
        <ele>1725.82</ele>
        <time>2015-06-06T14:10:24Z</time>
      </trkpt>
      <trkpt lat="45.55207" lon="6.37635">
        <ele>1721.19</ele>
        <time>2015-06-06T14:10:41Z</time>
      </trkpt>
      <trkpt lat="45.55193" lon="6.37652">
        <ele>1716.81</ele>
        <time>2015-06-06T14:11:03Z</time>
      </trkpt>
      <trkpt lat="45.55178" lon="6.37667">
        <ele>1708.98</ele>
        <time>2015-06-06T14:11:23Z</time>
      </trkpt>
      <trkpt lat="45.5516" lon="6.37676">
        <ele>1704.28</ele>
        <time>2015-06-06T14:12:16Z</time>
      </trkpt>
      <trkpt lat="45.55159" lon="6.37702">
        <ele>1698.73</ele>
        <time>2015-06-06T14:12:38Z</time>
      </trkpt>
      <trkpt lat="45.5515" lon="6.37725">
        <ele>1695.1</ele>
        <time>2015-06-06T14:12:54Z</time>
      </trkpt>
      <trkpt lat="45.55139" lon="6.37748">
        <ele>1692</ele>
        <time>2015-06-06T14:13:10Z</time>
      </trkpt>
      <trkpt lat="45.55139" lon="6.37774">
        <ele>1682.52</ele>
        <time>2015-06-06T14:13:35Z</time>
      </trkpt>
      <trkpt lat="45.55138" lon="6.378">
        <ele>1672.06</ele>
        <time>2015-06-06T14:13:54Z</time>
      </trkpt>
      <trkpt lat="45.55148" lon="6.37823">
        <ele>1665.54</ele>
        <time>2015-06-06T14:14:16Z</time>
      </trkpt>
      <trkpt lat="45.55162" lon="6.37839">
        <ele>1667.38</ele>
        <time>2015-06-06T14:14:33Z</time>
      </trkpt>
      <trkpt lat="45.55181" lon="6.37844">
        <ele>1671.94</ele>
        <time>2015-06-06T14:15:36Z</time>
      </trkpt>
      <trkpt lat="45.55199" lon="6.37854">
        <ele>1666.83</ele>
        <time>2015-06-06T14:15:50Z</time>
      </trkpt>
      <trkpt lat="45.55218" lon="6.37857">
        <ele>1660.05</ele>
        <time>2015-06-06T14:16:07Z</time>
      </trkpt>
      <trkpt lat="45.55237" lon="6.37865">
        <ele>1661.92</ele>
        <time>2015-06-06T14:16:21Z</time>
      </trkpt>
      <trkpt lat="45.55251" lon="6.37881">
        <ele>1663.62</ele>
        <time>2015-06-06T14:16:42Z</time>
      </trkpt>
      <trkpt lat="45.55266" lon="6.37898">
        <ele>1667.8</ele>
        <time>2015-06-06T14:17:00Z</time>
      </trkpt>
      <trkpt lat="45.55272" lon="6.37923">
        <ele>1661.34</ele>
        <time>2015-06-06T14:17:25Z</time>
      </trkpt>
      <trkpt lat="45.55264" lon="6.379">
        <ele>1667.63</ele>
        <time>2015-06-06T14:18:57Z</time>
      </trkpt>
      <trkpt lat="45.55249" lon="6.37884">
        <ele>1668.43</ele>
        <time>2015-06-06T14:19:17Z</time>
      </trkpt>
      <trkpt lat="45.55233" lon="6.37871">
        <ele>1669.78</ele>
        <time>2015-06-06T14:19:37Z</time>
      </trkpt>
      <trkpt lat="45.55215" lon="6.37862">
        <ele>1670.72</ele>
        <time>2015-06-06T14:19:56Z</time>
      </trkpt>
      <trkpt lat="45.55197" lon="6.37857">
        <ele>1667.59</ele>
        <time>2015-06-06T14:20:13Z</time>
      </trkpt>
      <trkpt lat="45.55179" lon="6.3785">
        <ele>1669.78</ele>
        <time>2015-06-06T14:20:35Z</time>
      </trkpt>
      <trkpt lat="45.55187" lon="6.37873">
        <ele>1657.56</ele>
        <time>2015-06-06T14:21:07Z</time>
      </trkpt>
      <trkpt lat="45.55198" lon="6.37894">
        <ele>1651.42</ele>
        <time>2015-06-06T14:21:33Z</time>
      </trkpt>
      <trkpt lat="45.55197" lon="6.3792">
        <ele>1643.11</ele>
        <time>2015-06-06T14:22:05Z</time>
      </trkpt>
      <trkpt lat="45.55182" lon="6.37937">
        <ele>1638.57</ele>
        <time>2015-06-06T14:22:30Z</time>
      </trkpt>
      <trkpt lat="45.55167" lon="6.37953">
        <ele>1628.67</ele>
        <time>2015-06-06T14:22:56Z</time>
      </trkpt>
      <trkpt lat="45.55152" lon="6.37969">
        <ele>1628.39</ele>
        <time>2015-06-06T14:25:12Z</time>
      </trkpt>
      <trkpt lat="45.55134" lon="6.37977">
        <ele>1619.79</ele>
        <time>2015-06-06T14:25:40Z</time>
      </trkpt>
      <trkpt lat="45.55115" lon="6.37975">
        <ele>1616.97</ele>
        <time>2015-06-06T14:26:08Z</time>
      </trkpt>
      <trkpt lat="45.55112" lon="6.38001">
        <ele>1602.28</ele>
        <time>2015-06-06T14:27:07Z</time>
      </trkpt>
      <trkpt lat="45.55095" lon="6.38007">
        <ele>1597.15</ele>
        <time>2015-06-06T14:27:32Z</time>
      </trkpt>
      <trkpt lat="45.55076" lon="6.38005">
        <ele>1590.57</ele>
        <time>2015-06-06T14:27:56Z</time>
      </trkpt>
      <trkpt lat="45.55058" lon="6.38001">
        <ele>1580.91</ele>
        <time>2015-06-06T14:28:17Z</time>
      </trkpt>
      <trkpt lat="45.55041" lon="6.37995">
        <ele>1578.54</ele>
        <time>2015-06-06T14:28:41Z</time>
      </trkpt>
      <trkpt lat="45.55022" lon="6.37989">
        <ele>1575.01</ele>
        <time>2015-06-06T14:29:04Z</time>
      </trkpt>
      <trkpt lat="45.55006" lon="6.37977">
        <ele>1567.87</ele>
        <time>2015-06-06T14:29:24Z</time>
      </trkpt>
      <trkpt lat="45.54991" lon="6.37962">
        <ele>1561.8</ele>
        <time>2015-06-06T14:29:42Z</time>
      </trkpt>
      <trkpt lat="45.54973" lon="6.37959">
        <ele>1560.6</ele>
        <time>2015-06-06T14:29:56Z</time>
      </trkpt>
      <trkpt lat="45.54959" lon="6.37943">
        <ele>1555.96</ele>
        <time>2015-06-06T14:30:07Z</time>
      </trkpt>
      <trkpt lat="45.54942" lon="6.37932">
        <ele>1551.37</ele>
        <time>2015-06-06T14:30:23Z</time>
      </trkpt>
      <trkpt lat="45.54926" lon="6.37916">
        <ele>1550.82</ele>
        <time>2015-06-06T14:30:37Z</time>
      </trkpt>
      <trkpt lat="45.54912" lon="6.37896">
        <ele>1554.91</ele>
        <time>2015-06-06T14:30:52Z</time>
      </trkpt>
      <trkpt lat="45.54896" lon="6.37881">
        <ele>1554.76</ele>
        <time>2015-06-06T14:31:06Z</time>
      </trkpt>
      <trkpt lat="45.54885" lon="6.37859">
        <ele>1547.63</ele>
        <time>2015-06-06T14:31:20Z</time>
      </trkpt>
      <trkpt lat="45.5487" lon="6.37844">
        <ele>1546.01</ele>
        <time>2015-06-06T14:31:33Z</time>
      </trkpt>
      <trkpt lat="45.54864" lon="6.37819">
        <ele>1531.2</ele>
        <time>2015-06-06T14:31:47Z</time>
      </trkpt>
      <trkpt lat="45.54848" lon="6.37804">
        <ele>1536.61</ele>
        <time>2015-06-06T14:31:59Z</time>
      </trkpt>
      <trkpt lat="45.54839" lon="6.3778">
        <ele>1533.9</ele>
        <time>2015-06-06T14:32:12Z</time>
      </trkpt>
      <trkpt lat="45.5483" lon="6.37758">
        <ele>1526.53</ele>
        <time>2015-06-06T14:32:25Z</time>
      </trkpt>
      <trkpt lat="45.54817" lon="6.37737">
        <ele>1519.2</ele>
        <time>2015-06-06T14:32:40Z</time>
      </trkpt>
      <trkpt lat="45.54811" lon="6.37713">
        <ele>1505.65</ele>
        <time>2015-06-06T14:32:58Z</time>
      </trkpt>
      <trkpt lat="45.54802" lon="6.3769">
        <ele>1497.81</ele>
        <time>2015-06-06T14:33:15Z</time>
      </trkpt>
      <trkpt lat="45.5479" lon="6.3767">
        <ele>1493.91</ele>
        <time>2015-06-06T14:33:32Z</time>
      </trkpt>
      <trkpt lat="45.5479" lon="6.37644">
        <ele>1486.8</ele>
        <time>2015-06-06T14:33:46Z</time>
      </trkpt>
      <trkpt lat="45.54789" lon="6.37616">
        <ele>1491.6</ele>
        <time>2015-06-06T14:33:57Z</time>
      </trkpt>
      <trkpt lat="45.54797" lon="6.37593">
        <ele>1481.46</ele>
        <time>2015-06-06T14:34:12Z</time>
      </trkpt>
      <trkpt lat="45.548" lon="6.37567">
        <ele>1483.31</ele>
        <time>2015-06-06T14:34:26Z</time>
      </trkpt>
      <trkpt lat="45.54805" lon="6.37541">
        <ele>1480.19</ele>
        <time>2015-06-06T14:34:43Z</time>
      </trkpt>
      <trkpt lat="45.54795" lon="6.37518">
        <ele>1481.66</ele>
        <time>2015-06-06T14:34:57Z</time>
      </trkpt>
      <trkpt lat="45.54791" lon="6.37491">
        <ele>1462.65</ele>
        <time>2015-06-06T14:35:14Z</time>
      </trkpt>
      <trkpt lat="45.54783" lon="6.37467">
        <ele>1449.04</ele>
        <time>2015-06-06T14:35:42Z</time>
      </trkpt>
      <trkpt lat="45.54782" lon="6.37441">
        <ele>1445.79</ele>
        <time>2015-06-06T14:35:59Z</time>
      </trkpt>
      <trkpt lat="45.54779" lon="6.37416">
        <ele>1444.36</ele>
        <time>2015-06-06T14:36:16Z</time>
      </trkpt>
      <trkpt lat="45.54779" lon="6.37388">
        <ele>1439.76</ele>
        <time>2015-06-06T14:36:30Z</time>
      </trkpt>
      <trkpt lat="45.54774" lon="6.37363">
        <ele>1441.91</ele>
        <time>2015-06-06T14:36:48Z</time>
      </trkpt>
      <trkpt lat="45.54775" lon="6.37337">
        <ele>1432.91</ele>
        <time>2015-06-06T14:37:09Z</time>
      </trkpt>
      <trkpt lat="45.5476" lon="6.37321">
        <ele>1422.82</ele>
        <time>2015-06-06T14:37:39Z</time>
      </trkpt>
      <trkpt lat="45.54744" lon="6.37332">
        <ele>1415.89</ele>
        <time>2015-06-06T14:37:55Z</time>
      </trkpt>
      <trkpt lat="45.54729" lon="6.37346">
        <ele>1406.92</ele>
        <time>2015-06-06T14:38:11Z</time>
      </trkpt>
      <trkpt lat="45.54713" lon="6.3736">
        <ele>1401.71</ele>
        <time>2015-06-06T14:38:26Z</time>
      </trkpt>
      <trkpt lat="45.54706" lon="6.37335">
        <ele>1397.23</ele>
        <time>2015-06-06T14:38:42Z</time>
      </trkpt>
      <trkpt lat="45.54705" lon="6.37308">
        <ele>1390.17</ele>
        <time>2015-06-06T14:38:59Z</time>
      </trkpt>
      <trkpt lat="45.54688" lon="6.37297">
        <ele>1389.63</ele>
        <time>2015-06-06T14:39:24Z</time>
      </trkpt>
      <trkpt lat="45.54663" lon="6.37299">
        <ele>1386.02</ele>
        <time>2015-06-06T14:39:38Z</time>
      </trkpt>
      <trkpt lat="45.54653" lon="6.37321">
        <ele>1383.65</ele>
        <time>2015-06-06T14:39:53Z</time>
      </trkpt>
      <trkpt lat="45.5464" lon="6.3734">
        <ele>1383.68</ele>
        <time>2015-06-06T14:40:04Z</time>
      </trkpt>
      <trkpt lat="45.54627" lon="6.3736">
        <ele>1381.66</ele>
        <time>2015-06-06T14:40:28Z</time>
      </trkpt>
      <trkpt lat="45.54608" lon="6.37365">
        <ele>1384.81</ele>
        <time>2015-06-06T14:40:43Z</time>
      </trkpt>
      <trkpt lat="45.54589" lon="6.37374">
        <ele>1388.28</ele>
        <time>2015-06-06T14:40:55Z</time>
      </trkpt>
      <trkpt lat="45.54573" lon="6.37384">
        <ele>1380.92</ele>
        <time>2015-06-06T14:41:15Z</time>
      </trkpt>
      <trkpt lat="45.54558" lon="6.37404">
        <ele>1384.2</ele>
        <time>2015-06-06T14:41:36Z</time>
      </trkpt>
      <trkpt lat="45.54542" lon="6.37419">
        <ele>1384.95</ele>
        <time>2015-06-06T14:41:55Z</time>
      </trkpt>
      <trkpt lat="45.54524" lon="6.37417">
        <ele>1384.51</ele>
        <time>2015-06-06T14:42:25Z</time>
      </trkpt>
      <trkpt lat="45.54506" lon="6.3743">
        <ele>1391.43</ele>
        <time>2015-06-06T14:42:35Z</time>
      </trkpt>
      <trkpt lat="45.54489" lon="6.37428">
        <ele>1386.2</ele>
        <time>2015-06-06T14:42:53Z</time>
      </trkpt>
      <trkpt lat="45.5447" lon="6.37425">
        <ele>1381.19</ele>
        <time>2015-06-06T14:43:12Z</time>
      </trkpt>
      <trkpt lat="45.54451" lon="6.37424">
        <ele>1383.47</ele>
        <time>2015-06-06T14:43:24Z</time>
      </trkpt>
      <trkpt lat="45.54434" lon="6.37429">
        <ele>1390.89</ele>
        <time>2015-06-06T14:43:37Z</time>
      </trkpt>
      <trkpt lat="45.54422" lon="6.37409">
        <ele>1389.93</ele>
        <time>2015-06-06T14:43:55Z</time>
      </trkpt>
      <trkpt lat="45.54406" lon="6.37421">
        <ele>1387.99</ele>
        <time>2015-06-06T14:44:07Z</time>
      </trkpt>
      <trkpt lat="45.54388" lon="6.37419">
        <ele>1389.82</ele>
        <time>2015-06-06T14:44:23Z</time>
      </trkpt>
      <trkpt lat="45.54371" lon="6.37411">
        <ele>1385.03</ele>
        <time>2015-06-06T14:44:37Z</time>
      </trkpt>
      <trkpt lat="45.54351" lon="6.37405">
        <ele>1389.58</ele>
        <time>2015-06-06T14:44:49Z</time>
      </trkpt>
      <trkpt lat="45.54334" lon="6.37392">
        <ele>1397.57</ele>
        <time>2015-06-06T14:45:03Z</time>
      </trkpt>
      <trkpt lat="45.54319" lon="6.37376">
        <ele>1397.82</ele>
        <time>2015-06-06T14:45:20Z</time>
      </trkpt>
      <trkpt lat="45.54307" lon="6.37355">
        <ele>1397.99</ele>
        <time>2015-06-06T14:45:34Z</time>
      </trkpt>
      <trkpt lat="45.54293" lon="6.37335">
        <ele>1399.83</ele>
        <time>2015-06-06T14:45:49Z</time>
      </trkpt>
      <trkpt lat="45.54278" lon="6.37319">
        <ele>1397.77</ele>
        <time>2015-06-06T14:46:06Z</time>
      </trkpt>
      <trkpt lat="45.54264" lon="6.37299">
        <ele>1391.03</ele>
        <time>2015-06-06T14:46:23Z</time>
      </trkpt>
      <trkpt lat="45.54246" lon="6.37287">
        <ele>1391.93</ele>
        <time>2015-06-06T14:46:39Z</time>
      </trkpt>
      <trkpt lat="45.54231" lon="6.37272">
        <ele>1396.04</ele>
        <time>2015-06-06T14:46:54Z</time>
      </trkpt>
      <trkpt lat="45.54216" lon="6.37256">
        <ele>1397.99</ele>
        <time>2015-06-06T14:47:10Z</time>
      </trkpt>
      <trkpt lat="45.54202" lon="6.37239">
        <ele>1399.74</ele>
        <time>2015-06-06T14:47:24Z</time>
      </trkpt>
      <trkpt lat="45.54188" lon="6.3722">
        <ele>1399.36</ele>
        <time>2015-06-06T14:47:40Z</time>
      </trkpt>
      <trkpt lat="45.54178" lon="6.37196">
        <ele>1402.48</ele>
        <time>2015-06-06T14:47:56Z</time>
      </trkpt>
      <trkpt lat="45.54167" lon="6.37173">
        <ele>1402.2</ele>
        <time>2015-06-06T14:48:08Z</time>
      </trkpt>
      <trkpt lat="45.54158" lon="6.3715">
        <ele>1396.9</ele>
        <time>2015-06-06T14:48:23Z</time>
      </trkpt>
      <trkpt lat="45.54144" lon="6.37132">
        <ele>1402.02</ele>
        <time>2015-06-06T14:48:38Z</time>
      </trkpt>
      <trkpt lat="45.54134" lon="6.37108">
        <ele>1405.64</ele>
        <time>2015-06-06T14:48:49Z</time>
      </trkpt>
      <trkpt lat="45.54118" lon="6.37094">
        <ele>1411.23</ele>
        <time>2015-06-06T14:49:07Z</time>
      </trkpt>
      <trkpt lat="45.54104" lon="6.37076">
        <ele>1405.91</ele>
        <time>2015-06-06T14:49:25Z</time>
      </trkpt>
      <trkpt lat="45.54086" lon="6.37068">
        <ele>1399.47</ele>
        <time>2015-06-06T14:49:39Z</time>
      </trkpt>
      <trkpt lat="45.54072" lon="6.37051">
        <ele>1393.96</ele>
        <time>2015-06-06T14:49:52Z</time>
      </trkpt>
      <trkpt lat="45.54056" lon="6.37035">
        <ele>1402.69</ele>
        <time>2015-06-06T14:50:06Z</time>
      </trkpt>
      <trkpt lat="45.54047" lon="6.37011">
        <ele>1405.86</ele>
        <time>2015-06-06T14:50:14Z</time>
      </trkpt>
      <trkpt lat="45.54038" lon="6.36988">
        <ele>1396.4</ele>
        <time>2015-06-06T14:50:28Z</time>
      </trkpt>
      <trkpt lat="45.54022" lon="6.36971">
        <ele>1398.82</ele>
        <time>2015-06-06T14:50:41Z</time>
      </trkpt>
      <trkpt lat="45.54006" lon="6.36959">
        <ele>1393.77</ele>
        <time>2015-06-06T14:50:58Z</time>
      </trkpt>
      <trkpt lat="45.5399" lon="6.36945">
        <ele>1385.91</ele>
        <time>2015-06-06T14:51:10Z</time>
      </trkpt>
      <trkpt lat="45.53977" lon="6.36926">
        <ele>1382.63</ele>
        <time>2015-06-06T14:51:24Z</time>
      </trkpt>
      <trkpt lat="45.53965" lon="6.36905">
        <ele>1387.94</ele>
        <time>2015-06-06T14:51:37Z</time>
      </trkpt>
      <trkpt lat="45.53952" lon="6.36885">
        <ele>1391.25</ele>
        <time>2015-06-06T14:51:49Z</time>
      </trkpt>
      <trkpt lat="45.53942" lon="6.36862">
        <ele>1386.16</ele>
        <time>2015-06-06T14:52:01Z</time>
      </trkpt>
      <trkpt lat="45.53932" lon="6.36839">
        <ele>1378.33</ele>
        <time>2015-06-06T14:52:15Z</time>
      </trkpt>
      <trkpt lat="45.53925" lon="6.36815">
        <ele>1374.52</ele>
        <time>2015-06-06T14:52:27Z</time>
      </trkpt>
      <trkpt lat="45.5392" lon="6.3679">
        <ele>1360.81</ele>
        <time>2015-06-06T14:52:38Z</time>
      </trkpt>
      <trkpt lat="45.53908" lon="6.36769">
        <ele>1357.61</ele>
        <time>2015-06-06T14:52:51Z</time>
      </trkpt>
      <trkpt lat="45.53897" lon="6.36748">
        <ele>1353.7</ele>
        <time>2015-06-06T14:53:06Z</time>
      </trkpt>
      <trkpt lat="45.53881" lon="6.36731">
        <ele>1362.44</ele>
        <time>2015-06-06T14:53:21Z</time>
      </trkpt>
      <trkpt lat="45.5386" lon="6.3673">
        <ele>1357.16</ele>
        <time>2015-06-06T14:53:39Z</time>
      </trkpt>
      <trkpt lat="45.53842" lon="6.36727">
        <ele>1352.13</ele>
        <time>2015-06-06T14:53:51Z</time>
      </trkpt>
      <trkpt lat="45.53827" lon="6.36713">
        <ele>1347.88</ele>
        <time>2015-06-06T14:54:04Z</time>
      </trkpt>
      <trkpt lat="45.53812" lon="6.36697">
        <ele>1345.69</ele>
        <time>2015-06-06T14:54:17Z</time>
      </trkpt>
      <trkpt lat="45.53801" lon="6.36676">
        <ele>1340.62</ele>
        <time>2015-06-06T14:54:32Z</time>
      </trkpt>
      <trkpt lat="45.53794" lon="6.3665">
        <ele>1332.3</ele>
        <time>2015-06-06T14:54:54Z</time>
      </trkpt>
      <trkpt lat="45.53788" lon="6.36625">
        <ele>1329.53</ele>
        <time>2015-06-06T14:55:04Z</time>
      </trkpt>
      <trkpt lat="45.53784" lon="6.366">
        <ele>1329.01</ele>
        <time>2015-06-06T14:55:17Z</time>
      </trkpt>
      <trkpt lat="45.53779" lon="6.36574">
        <ele>1329.41</ele>
        <time>2015-06-06T14:55:32Z</time>
      </trkpt>
      <trkpt lat="45.53781" lon="6.36548">
        <ele>1328.46</ele>
        <time>2015-06-06T14:55:47Z</time>
      </trkpt>
      <trkpt lat="45.53776" lon="6.36523">
        <ele>1326.67</ele>
        <time>2015-06-06T14:56:00Z</time>
      </trkpt>
      <trkpt lat="45.53758" lon="6.36516">
        <ele>1333.44</ele>
        <time>2015-06-06T14:56:12Z</time>
      </trkpt>
      <trkpt lat="45.53739" lon="6.36508">
        <ele>1343.11</ele>
        <time>2015-06-06T14:56:22Z</time>
      </trkpt>
      <trkpt lat="45.53721" lon="6.36513">
        <ele>1331.65</ele>
        <time>2015-06-06T14:56:41Z</time>
      </trkpt>
      <trkpt lat="45.53734" lon="6.36492">
        <ele>1326.73</ele>
        <time>2015-06-06T14:56:57Z</time>
      </trkpt>
      <trkpt lat="45.5374" lon="6.36467">
        <ele>1320.61</ele>
        <time>2015-06-06T14:57:10Z</time>
      </trkpt>
      <trkpt lat="45.53734" lon="6.36441">
        <ele>1324.67</ele>
        <time>2015-06-06T14:57:20Z</time>
      </trkpt>
      <trkpt lat="45.53735" lon="6.36415">
        <ele>1328.55</ele>
        <time>2015-06-06T14:57:33Z</time>
      </trkpt>
      <trkpt lat="45.53747" lon="6.36393">
        <ele>1339.91</ele>
        <time>2015-06-06T14:57:57Z</time>
      </trkpt>
      <trkpt lat="45.53765" lon="6.36384">
        <ele>1346.48</ele>
        <time>2015-06-06T14:58:08Z</time>
      </trkpt>
      <trkpt lat="45.53774" lon="6.36362">
        <ele>1344.83</ele>
        <time>2015-06-06T14:58:33Z</time>
      </trkpt>
      <trkpt lat="45.53766" lon="6.36337">
        <ele>1348.52</ele>
        <time>2015-06-06T14:59:20Z</time>
      </trkpt>
      <trkpt lat="45.53755" lon="6.36316">
        <ele>1351.48</ele>
        <time>2015-06-06T14:59:36Z</time>
      </trkpt>
      <trkpt lat="45.53749" lon="6.36292">
        <ele>1349.83</ele>
        <time>2015-06-06T14:59:59Z</time>
      </trkpt>
      <trkpt lat="45.53739" lon="6.36268">
        <ele>1358.28</ele>
        <time>2015-06-06T15:00:26Z</time>
      </trkpt>
      <trkpt lat="45.53733" lon="6.36243">
        <ele>1363.13</ele>
        <time>2015-06-06T15:00:38Z</time>
      </trkpt>
      <trkpt lat="45.53724" lon="6.36219">
        <ele>1359.81</ele>
        <time>2015-06-06T15:01:01Z</time>
      </trkpt>
      <trkpt lat="45.5372" lon="6.36193">
        <ele>1359.57</ele>
        <time>2015-06-06T15:01:22Z</time>
      </trkpt>
      <trkpt lat="45.53714" lon="6.36164">
        <ele>1355.48</ele>
        <time>2015-06-06T15:01:36Z</time>
      </trkpt>
      <trkpt lat="45.53714" lon="6.36136">
        <ele>1357.3</ele>
        <time>2015-06-06T15:01:56Z</time>
      </trkpt>
      <trkpt lat="45.53717" lon="6.3611">
        <ele>1353.67</ele>
        <time>2015-06-06T15:02:14Z</time>
      </trkpt>
      <trkpt lat="45.53721" lon="6.36085">
        <ele>1357.94</ele>
        <time>2015-06-06T15:02:31Z</time>
      </trkpt>
      <trkpt lat="45.53711" lon="6.36063">
        <ele>1357.78</ele>
        <time>2015-06-06T15:02:46Z</time>
      </trkpt>
      <trkpt lat="45.537" lon="6.36041">
        <ele>1356.95</ele>
        <time>2015-06-06T15:03:01Z</time>
      </trkpt>
      <trkpt lat="45.53687" lon="6.36024">
        <ele>1359.34</ele>
        <time>2015-06-06T15:03:14Z</time>
      </trkpt>
      <trkpt lat="45.53674" lon="6.36002">
        <ele>1354.16</ele>
        <time>2015-06-06T15:03:26Z</time>
      </trkpt>
      <trkpt lat="45.53656" lon="6.36">
        <ele>1358.47</ele>
        <time>2015-06-06T15:03:37Z</time>
      </trkpt>
      <trkpt lat="45.53642" lon="6.35984">
        <ele>1350.35</ele>
        <time>2015-06-06T15:03:53Z</time>
      </trkpt>
      <trkpt lat="45.53628" lon="6.35967">
        <ele>1333.72</ele>
        <time>2015-06-06T15:04:09Z</time>
      </trkpt>
      <trkpt lat="45.53619" lon="6.35943">
        <ele>1327.58</ele>
        <time>2015-06-06T15:04:22Z</time>
      </trkpt>
      <trkpt lat="45.53607" lon="6.35919">
        <ele>1329.93</ele>
        <time>2015-06-06T15:04:44Z</time>
      </trkpt>
      <trkpt lat="45.53605" lon="6.35892">
        <ele>1316.54</ele>
        <time>2015-06-06T15:04:55Z</time>
      </trkpt>
      <trkpt lat="45.53602" lon="6.35865">
        <ele>1324.56</ele>
        <time>2015-06-06T15:05:11Z</time>
      </trkpt>
      <trkpt lat="45.53598" lon="6.35839">
        <ele>1321.6</ele>
        <time>2015-06-06T15:05:24Z</time>
      </trkpt>
      <trkpt lat="45.53596" lon="6.35813">
        <ele>1313.77</ele>
        <time>2015-06-06T15:05:40Z</time>
      </trkpt>
      <trkpt lat="45.53593" lon="6.35788">
        <ele>1307.55</ele>
        <time>2015-06-06T15:05:51Z</time>
      </trkpt>
      <trkpt lat="45.53593" lon="6.35759">
        <ele>1302.78</ele>
        <time>2015-06-06T15:06:02Z</time>
      </trkpt>
      <trkpt lat="45.53607" lon="6.35742">
        <ele>1290.96</ele>
        <time>2015-06-06T15:06:16Z</time>
      </trkpt>
      <trkpt lat="45.53604" lon="6.35716">
        <ele>1285.06</ele>
        <time>2015-06-06T15:06:33Z</time>
      </trkpt>
      <trkpt lat="45.53599" lon="6.35691">
        <ele>1282.03</ele>
        <time>2015-06-06T15:06:46Z</time>
      </trkpt>
      <trkpt lat="45.53587" lon="6.3567">
        <ele>1278.01</ele>
        <time>2015-06-06T15:06:59Z</time>
      </trkpt>
      <trkpt lat="45.53578" lon="6.35647">
        <ele>1275.75</ele>
        <time>2015-06-06T15:07:12Z</time>
      </trkpt>
      <trkpt lat="45.53564" lon="6.3563">
        <ele>1280.57</ele>
        <time>2015-06-06T15:07:24Z</time>
      </trkpt>
      <trkpt lat="45.53548" lon="6.35614">
        <ele>1285.15</ele>
        <time>2015-06-06T15:07:36Z</time>
      </trkpt>
      <trkpt lat="45.5353" lon="6.35607">
        <ele>1286.54</ele>
        <time>2015-06-06T15:07:50Z</time>
      </trkpt>
      <trkpt lat="45.53516" lon="6.35589">
        <ele>1281.85</ele>
        <time>2015-06-06T15:08:02Z</time>
      </trkpt>
      <trkpt lat="45.535" lon="6.3558">
        <ele>1294.69</ele>
        <time>2015-06-06T15:08:12Z</time>
      </trkpt>
      <trkpt lat="45.53483" lon="6.35568">
        <ele>1309.03</ele>
        <time>2015-06-06T15:08:23Z</time>
      </trkpt>
      <trkpt lat="45.53471" lon="6.35547">
        <ele>1297.45</ele>
        <time>2015-06-06T15:08:37Z</time>
      </trkpt>
      <trkpt lat="45.53457" lon="6.3553">
        <ele>1286.52</ele>
        <time>2015-06-06T15:08:51Z</time>
      </trkpt>
      <trkpt lat="45.53441" lon="6.35517">
        <ele>1285.28</ele>
        <time>2015-06-06T15:09:02Z</time>
      </trkpt>
      <trkpt lat="45.53431" lon="6.35495">
        <ele>1284.2</ele>
        <time>2015-06-06T15:09:14Z</time>
      </trkpt>
      <trkpt lat="45.5342" lon="6.35472">
        <ele>1274.61</ele>
        <time>2015-06-06T15:09:28Z</time>
      </trkpt>
      <trkpt lat="45.53408" lon="6.35451">
        <ele>1271.31</ele>
        <time>2015-06-06T15:09:40Z</time>
      </trkpt>
      <trkpt lat="45.53401" lon="6.35426">
        <ele>1273.5</ele>
        <time>2015-06-06T15:09:54Z</time>
      </trkpt>
      <trkpt lat="45.53392" lon="6.35402">
        <ele>1282.76</ele>
        <time>2015-06-06T15:10:05Z</time>
      </trkpt>
      <trkpt lat="45.53385" lon="6.35378">
        <ele>1283.67</ele>
        <time>2015-06-06T15:10:18Z</time>
      </trkpt>
      <trkpt lat="45.5338" lon="6.35351">
        <ele>1282.03</ele>
        <time>2015-06-06T15:10:30Z</time>
      </trkpt>
      <trkpt lat="45.53376" lon="6.35325">
        <ele>1280.09</ele>
        <time>2015-06-06T15:10:44Z</time>
      </trkpt>
      <trkpt lat="45.5337" lon="6.35299">
        <ele>1283.33</ele>
        <time>2015-06-06T15:10:55Z</time>
      </trkpt>
      <trkpt lat="45.53363" lon="6.35273">
        <ele>1284.19</ele>
        <time>2015-06-06T15:11:08Z</time>
      </trkpt>
      <trkpt lat="45.53349" lon="6.35258">
        <ele>1275.64</ele>
        <time>2015-06-06T15:11:22Z</time>
      </trkpt>
      <trkpt lat="45.53343" lon="6.35233">
        <ele>1270.66</ele>
        <time>2015-06-06T15:11:35Z</time>
      </trkpt>
      <trkpt lat="45.53336" lon="6.35208">
        <ele>1260.24</ele>
        <time>2015-06-06T15:11:48Z</time>
      </trkpt>
      <trkpt lat="45.5332" lon="6.35194">
        <ele>1258.08</ele>
        <time>2015-06-06T15:12:02Z</time>
      </trkpt>
      <trkpt lat="45.53305" lon="6.35181">
        <ele>1261.27</ele>
        <time>2015-06-06T15:12:13Z</time>
      </trkpt>
      <trkpt lat="45.533" lon="6.35155">
        <ele>1258.09</ele>
        <time>2015-06-06T15:12:25Z</time>
      </trkpt>
      <trkpt lat="45.53294" lon="6.35129">
        <ele>1248.27</ele>
        <time>2015-06-06T15:12:39Z</time>
      </trkpt>
      <trkpt lat="45.53286" lon="6.35104">
        <ele>1240.18</ele>
        <time>2015-06-06T15:12:53Z</time>
      </trkpt>
      <trkpt lat="45.53278" lon="6.35078">
        <ele>1244.09</ele>
        <time>2015-06-06T15:13:08Z</time>
      </trkpt>
      <trkpt lat="45.53264" lon="6.3506">
        <ele>1239.06</ele>
        <time>2015-06-06T15:13:19Z</time>
      </trkpt>
      <trkpt lat="45.53257" lon="6.35034">
        <ele>1240.22</ele>
        <time>2015-06-06T15:13:31Z</time>
      </trkpt>
      <trkpt lat="45.53241" lon="6.35016">
        <ele>1236.08</ele>
        <time>2015-06-06T15:13:42Z</time>
      </trkpt>
      <trkpt lat="45.53243" lon="6.3499">
        <ele>1236.59</ele>
        <time>2015-06-06T15:13:55Z</time>
      </trkpt>
      <trkpt lat="45.53233" lon="6.34967">
        <ele>1220.16</ele>
        <time>2015-06-06T15:14:12Z</time>
      </trkpt>
      <trkpt lat="45.53223" lon="6.34945">
        <ele>1225.18</ele>
        <time>2015-06-06T15:14:25Z</time>
      </trkpt>
      <trkpt lat="45.53205" lon="6.34939">
        <ele>1233.82</ele>
        <time>2015-06-06T15:14:35Z</time>
      </trkpt>
      <trkpt lat="45.53189" lon="6.34926">
        <ele>1250.71</ele>
        <time>2015-06-06T15:14:46Z</time>
      </trkpt>
      <trkpt lat="45.53171" lon="6.3493">
        <ele>1243.15</ele>
        <time>2015-06-06T15:14:59Z</time>
      </trkpt>
      <trkpt lat="45.53152" lon="6.34928">
        <ele>1249.19</ele>
        <time>2015-06-06T15:15:10Z</time>
      </trkpt>
      <trkpt lat="45.53134" lon="6.34915">
        <ele>1242.9</ele>
        <time>2015-06-06T15:15:26Z</time>
      </trkpt>
      <trkpt lat="45.53129" lon="6.3489">
        <ele>1226.85</ele>
        <time>2015-06-06T15:15:45Z</time>
      </trkpt>
      <trkpt lat="45.53124" lon="6.34863">
        <ele>1225.8</ele>
        <time>2015-06-06T15:15:55Z</time>
      </trkpt>
      <trkpt lat="45.53124" lon="6.34834">
        <ele>1227.3</ele>
        <time>2015-06-06T15:16:09Z</time>
      </trkpt>
      <trkpt lat="45.53122" lon="6.34805">
        <ele>1223.42</ele>
        <time>2015-06-06T15:16:20Z</time>
      </trkpt>
      <trkpt lat="45.53123" lon="6.34779">
        <ele>1220.81</ele>
        <time>2015-06-06T15:16:32Z</time>
      </trkpt>
      <trkpt lat="45.5312" lon="6.34752">
        <ele>1214</ele>
        <time>2015-06-06T15:16:49Z</time>
      </trkpt>
      <trkpt lat="45.53108" lon="6.34732">
        <ele>1210.81</ele>
        <time>2015-06-06T15:17:07Z</time>
      </trkpt>
      <trkpt lat="45.53102" lon="6.34706">
        <ele>1209.63</ele>
        <time>2015-06-06T15:17:18Z</time>
      </trkpt>
      <trkpt lat="45.53095" lon="6.34682">
        <ele>1205.69</ele>
        <time>2015-06-06T15:17:37Z</time>
      </trkpt>
      <trkpt lat="45.53088" lon="6.34658">
        <ele>1207.96</ele>
        <time>2015-06-06T15:17:52Z</time>
      </trkpt>
      <trkpt lat="45.5307" lon="6.34601">
        <ele>1219.25</ele>
        <time>2015-06-06T15:18:20Z</time>
      </trkpt>
      <trkpt lat="45.53082" lon="6.34582">
        <ele>1237.09</ele>
        <time>2015-06-06T15:18:46Z</time>
      </trkpt>
      <trkpt lat="45.53084" lon="6.34555">
        <ele>1231.86</ele>
        <time>2015-06-06T15:19:00Z</time>
      </trkpt>
      <trkpt lat="45.53084" lon="6.34529">
        <ele>1226.44</ele>
        <time>2015-06-06T15:19:14Z</time>
      </trkpt>
      <trkpt lat="45.5308" lon="6.34504">
        <ele>1218.46</ele>
        <time>2015-06-06T15:19:32Z</time>
      </trkpt>
      <trkpt lat="45.53076" lon="6.34478">
        <ele>1206.96</ele>
        <time>2015-06-06T15:19:48Z</time>
      </trkpt>
      <trkpt lat="45.5307" lon="6.34452">
        <ele>1208.42</ele>
        <time>2015-06-06T15:20:01Z</time>
      </trkpt>
      <trkpt lat="45.53065" lon="6.34427">
        <ele>1217.2</ele>
        <time>2015-06-06T15:20:21Z</time>
      </trkpt>
      <trkpt lat="45.53059" lon="6.34402">
        <ele>1214.54</ele>
        <time>2015-06-06T15:20:47Z</time>
      </trkpt>
      <trkpt lat="45.53046" lon="6.34382">
        <ele>1217.27</ele>
        <time>2015-06-06T15:21:05Z</time>
      </trkpt>
      <trkpt lat="45.53029" lon="6.34372">
        <ele>1235.19</ele>
        <time>2015-06-06T15:21:18Z</time>
      </trkpt>
      <trkpt lat="45.53016" lon="6.34355">
        <ele>1228.37</ele>
        <time>2015-06-06T15:21:47Z</time>
      </trkpt>
      <trkpt lat="45.53007" lon="6.34331">
        <ele>1225.05</ele>
        <time>2015-06-06T15:22:01Z</time>
      </trkpt>
      <trkpt lat="45.52998" lon="6.34308">
        <ele>1226.16</ele>
        <time>2015-06-06T15:22:16Z</time>
      </trkpt>
      <trkpt lat="45.52988" lon="6.34284">
        <ele>1227.12</ele>
        <time>2015-06-06T15:22:31Z</time>
      </trkpt>
      <trkpt lat="45.52977" lon="6.34263">
        <ele>1229.14</ele>
        <time>2015-06-06T15:22:45Z</time>
      </trkpt>
      <trkpt lat="45.5297" lon="6.34221">
        <ele>1235.82</ele>
        <time>2015-06-06T15:23:30Z</time>
      </trkpt>
      <trkpt lat="45.52972" lon="6.34248">
        <ele>1242.25</ele>
        <time>2015-06-06T15:23:53Z</time>
      </trkpt>
      <trkpt lat="45.52981" lon="6.34273">
        <ele>1242.72</ele>
        <time>2015-06-06T15:24:09Z</time>
      </trkpt>
      <trkpt lat="45.52991" lon="6.34295">
        <ele>1242.02</ele>
        <time>2015-06-06T15:24:24Z</time>
      </trkpt>
      <trkpt lat="45.53" lon="6.34319">
        <ele>1241.02</ele>
        <time>2015-06-06T15:24:38Z</time>
      </trkpt>
      <trkpt lat="45.53009" lon="6.34341">
        <ele>1240.07</ele>
        <time>2015-06-06T15:24:51Z</time>
      </trkpt>
      <trkpt lat="45.5302" lon="6.34363">
        <ele>1241.6</ele>
        <time>2015-06-06T15:25:07Z</time>
      </trkpt>
      <trkpt lat="45.53034" lon="6.3438">
        <ele>1244.37</ele>
        <time>2015-06-06T15:25:25Z</time>
      </trkpt>
      <trkpt lat="45.5305" lon="6.34394">
        <ele>1243.74</ele>
        <time>2015-06-06T15:25:42Z</time>
      </trkpt>
      <trkpt lat="45.53059" lon="6.34416">
        <ele>1240.81</ele>
        <time>2015-06-06T15:25:56Z</time>
      </trkpt>
      <trkpt lat="45.53065" lon="6.34442">
        <ele>1234.7</ele>
        <time>2015-06-06T15:26:11Z</time>
      </trkpt>
      <trkpt lat="45.53071" lon="6.34467">
        <ele>1233.02</ele>
        <time>2015-06-06T15:26:25Z</time>
      </trkpt>
      <trkpt lat="45.53075" lon="6.34494">
        <ele>1232.53</ele>
        <time>2015-06-06T15:26:38Z</time>
      </trkpt>
      <trkpt lat="45.53081" lon="6.3452">
        <ele>1230.78</ele>
        <time>2015-06-06T15:26:52Z</time>
      </trkpt>
      <trkpt lat="45.53087" lon="6.34545">
        <ele>1229.05</ele>
        <time>2015-06-06T15:27:06Z</time>
      </trkpt>
      <trkpt lat="45.5309" lon="6.34572">
        <ele>1230.54</ele>
        <time>2015-06-06T15:27:20Z</time>
      </trkpt>
      <trkpt lat="45.53072" lon="6.34579">
        <ele>1219.69</ele>
        <time>2015-06-06T15:27:53Z</time>
      </trkpt>
      <trkpt lat="45.53065" lon="6.34555">
        <ele>1219.3</ele>
        <time>2015-06-06T15:28:16Z</time>
      </trkpt>
      <trkpt lat="45.53057" lon="6.34529">
        <ele>1216.46</ele>
        <time>2015-06-06T15:28:59Z</time>
      </trkpt>
      <trkpt lat="45.53065" lon="6.34555">
        <ele>1219.51</ele>
        <time>2015-06-06T15:30:43Z</time>
      </trkpt>
      <trkpt lat="45.5307" lon="6.3458">
        <ele>1217.98</ele>
        <time>2015-06-06T15:31:22Z</time>
      </trkpt>
      <trkpt lat="45.53052" lon="6.34574">
        <ele>1210.17</ele>
        <time>2015-06-06T15:32:37Z</time>
      </trkpt>
      <trkpt lat="45.53042" lon="6.34551">
        <ele>1207.55</ele>
        <time>2015-06-06T15:32:55Z</time>
      </trkpt>
      <trkpt lat="45.53034" lon="6.34527">
        <ele>1202.59</ele>
        <time>2015-06-06T15:33:12Z</time>
      </trkpt>
      <trkpt lat="45.53027" lon="6.34503">
        <ele>1203.02</ele>
        <time>2015-06-06T15:33:34Z</time>
      </trkpt>
      <trkpt lat="45.53023" lon="6.34477">
        <ele>1192.93</ele>
        <time>2015-06-06T15:33:44Z</time>
      </trkpt>
      <trkpt lat="45.53017" lon="6.34452">
        <ele>1196.45</ele>
        <time>2015-06-06T15:33:57Z</time>
      </trkpt>
      <trkpt lat="45.53002" lon="6.34467">
        <ele>1191.07</ele>
        <time>2015-06-06T15:34:21Z</time>
      </trkpt>
      <trkpt lat="45.52981" lon="6.34468">
        <ele>1179.91</ele>
        <time>2015-06-06T15:35:05Z</time>
      </trkpt>
      <trkpt lat="45.52966" lon="6.34451">
        <ele>1176.78</ele>
        <time>2015-06-06T15:35:21Z</time>
      </trkpt>
      <trkpt lat="45.52948" lon="6.34442">
        <ele>1173.36</ele>
        <time>2015-06-06T15:35:37Z</time>
      </trkpt>
      <trkpt lat="45.5293" lon="6.34439">
        <ele>1165.71</ele>
        <time>2015-06-06T15:35:56Z</time>
      </trkpt>
      <trkpt lat="45.52912" lon="6.34432">
        <ele>1159.45</ele>
        <time>2015-06-06T15:36:18Z</time>
      </trkpt>
      <trkpt lat="45.52901" lon="6.34412">
        <ele>1151.66</ele>
        <time>2015-06-06T15:36:48Z</time>
      </trkpt>
      <trkpt lat="45.52887" lon="6.34396">
        <ele>1155.28</ele>
        <time>2015-06-06T15:37:28Z</time>
      </trkpt>
      <trkpt lat="45.52868" lon="6.34399">
        <ele>1139.75</ele>
        <time>2015-06-06T15:38:09Z</time>
      </trkpt>
      <trkpt lat="45.52853" lon="6.34382">
        <ele>1129.61</ele>
        <time>2015-06-06T15:38:34Z</time>
      </trkpt>
      <trkpt lat="45.52837" lon="6.34394">
        <ele>1115.82</ele>
        <time>2015-06-06T15:39:33Z</time>
      </trkpt>
      <trkpt lat="45.52814" lon="6.34384">
        <ele>1116.79</ele>
        <time>2015-06-06T15:39:52Z</time>
      </trkpt>
      <trkpt lat="45.52796" lon="6.34386">
        <ele>1111.64</ele>
        <time>2015-06-06T15:40:37Z</time>
      </trkpt>
      <trkpt lat="45.52788" lon="6.34409">
        <ele>1093.64</ele>
        <time>2015-06-06T15:41:14Z</time>
      </trkpt>
      <trkpt lat="45.52788" lon="6.34435">
        <ele>1091.73</ele>
        <time>2015-06-06T15:41:53Z</time>
      </trkpt>
      <trkpt lat="45.52785" lon="6.34461">
        <ele>1086.59</ele>
        <time>2015-06-06T15:42:18Z</time>
      </trkpt>
      <trkpt lat="45.5277" lon="6.34475">
        <ele>1077.3</ele>
        <time>2015-06-06T15:42:41Z</time>
      </trkpt>
      <trkpt lat="45.52752" lon="6.34482">
        <ele>1065.27</ele>
        <time>2015-06-06T15:42:59Z</time>
      </trkpt>
      <trkpt lat="45.52738" lon="6.34499">
        <ele>1060.1</ele>
        <time>2015-06-06T15:44:17Z</time>
      </trkpt>
      <trkpt lat="45.52747" lon="6.34521">
        <ele>1062.5</ele>
        <time>2015-06-06T15:45:07Z</time>
      </trkpt>
      <trkpt lat="45.52752" lon="6.34548">
        <ele>1066.63</ele>
        <time>2015-06-06T15:45:17Z</time>
      </trkpt>
      <trkpt lat="45.52758" lon="6.34574">
        <ele>1066.77</ele>
        <time>2015-06-06T15:45:34Z</time>
      </trkpt>
      <trkpt lat="45.52739" lon="6.34579">
        <ele>1055.95</ele>
        <time>2015-06-06T15:46:09Z</time>
      </trkpt>
      <trkpt lat="45.52722" lon="6.34587">
        <ele>1050.74</ele>
        <time>2015-06-06T15:46:29Z</time>
      </trkpt>
      <trkpt lat="45.52706" lon="6.34601">
        <ele>1049.75</ele>
        <time>2015-06-06T15:46:43Z</time>
      </trkpt>
      <trkpt lat="45.52706" lon="6.34628">
        <ele>1044.29</ele>
        <time>2015-06-06T15:47:01Z</time>
      </trkpt>
      <trkpt lat="45.52706" lon="6.34655">
        <ele>1049.45</ele>
        <time>2015-06-06T15:47:12Z</time>
      </trkpt>
      <trkpt lat="45.52708" lon="6.34682">
        <ele>1048.51</ele>
        <time>2015-06-06T15:47:26Z</time>
      </trkpt>
      <trkpt lat="45.52716" lon="6.34705">
        <ele>1047.63</ele>
        <time>2015-06-06T15:47:41Z</time>
      </trkpt>
      <trkpt lat="45.52697" lon="6.34705">
        <ele>1041.28</ele>
        <time>2015-06-06T15:48:19Z</time>
      </trkpt>
      <trkpt lat="45.52682" lon="6.3469">
        <ele>1039.53</ele>
        <time>2015-06-06T15:48:33Z</time>
      </trkpt>
      <trkpt lat="45.52675" lon="6.34667">
        <ele>1034.56</ele>
        <time>2015-06-06T15:48:48Z</time>
      </trkpt>
      <trkpt lat="45.52671" lon="6.3464">
        <ele>1031.68</ele>
        <time>2015-06-06T15:49:02Z</time>
      </trkpt>
      <trkpt lat="45.52662" lon="6.34617">
        <ele>1033.24</ele>
        <time>2015-06-06T15:49:16Z</time>
      </trkpt>
      <trkpt lat="45.52657" lon="6.34591">
        <ele>1031.53</ele>
        <time>2015-06-06T15:49:30Z</time>
      </trkpt>
      <trkpt lat="45.52657" lon="6.34544">
        <ele>1032.25</ele>
        <time>2015-06-06T15:49:56Z</time>
      </trkpt>
      <trkpt lat="45.52653" lon="6.34518">
        <ele>1029.86</ele>
        <time>2015-06-06T15:50:08Z</time>
      </trkpt>
      <trkpt lat="45.52653" lon="6.34492">
        <ele>1030.64</ele>
        <time>2015-06-06T15:50:21Z</time>
      </trkpt>
      <trkpt lat="45.52652" lon="6.34467">
        <ele>1029.55</ele>
        <time>2015-06-06T15:50:35Z</time>
      </trkpt>
      <trkpt lat="45.52643" lon="6.34444">
        <ele>1028.33</ele>
        <time>2015-06-06T15:50:48Z</time>
      </trkpt>
      <trkpt lat="45.52633" lon="6.34421">
        <ele>1027.3</ele>
        <time>2015-06-06T15:51:04Z</time>
      </trkpt>
      <trkpt lat="45.5262" lon="6.34401">
        <ele>1029.58</ele>
        <time>2015-06-06T15:51:18Z</time>
      </trkpt>
      <trkpt lat="45.5261" lon="6.34379">
        <ele>1028.68</ele>
        <time>2015-06-06T15:51:33Z</time>
      </trkpt>
      <trkpt lat="45.52599" lon="6.34357">
        <ele>1024.1</ele>
        <time>2015-06-06T15:51:47Z</time>
      </trkpt>
      <trkpt lat="45.52586" lon="6.34337">
        <ele>1023.21</ele>
        <time>2015-06-06T15:52:01Z</time>
      </trkpt>
      <trkpt lat="45.52569" lon="6.34323">
        <ele>1020.59</ele>
        <time>2015-06-06T15:52:16Z</time>
      </trkpt>
      <trkpt lat="45.52551" lon="6.34312">
        <ele>1021.58</ele>
        <time>2015-06-06T15:52:28Z</time>
      </trkpt>
      <trkpt lat="45.52537" lon="6.34294">
        <ele>1018.2</ele>
        <time>2015-06-06T15:52:41Z</time>
      </trkpt>
      <trkpt lat="45.52525" lon="6.34274">
        <ele>1016.59</ele>
        <time>2015-06-06T15:52:54Z</time>
      </trkpt>
      <trkpt lat="45.52514" lon="6.34252">
        <ele>1017.53</ele>
        <time>2015-06-06T15:53:07Z</time>
      </trkpt>
      <trkpt lat="45.52502" lon="6.34232">
        <ele>1014.88</ele>
        <time>2015-06-06T15:53:20Z</time>
      </trkpt>
      <trkpt lat="45.5249" lon="6.34213">
        <ele>1008.39</ele>
        <time>2015-06-06T15:53:32Z</time>
      </trkpt>
      <trkpt lat="45.52478" lon="6.34193">
        <ele>1009.94</ele>
        <time>2015-06-06T15:53:46Z</time>
      </trkpt>
      <trkpt lat="45.52467" lon="6.34171">
        <ele>1009.35</ele>
        <time>2015-06-06T15:54:00Z</time>
      </trkpt>
      <trkpt lat="45.52459" lon="6.34147">
        <ele>1009.39</ele>
        <time>2015-06-06T15:54:15Z</time>
      </trkpt>
      <trkpt lat="45.52457" lon="6.3412">
        <ele>1012.28</ele>
        <time>2015-06-06T15:54:30Z</time>
      </trkpt>
      <trkpt lat="45.52443" lon="6.34073">
        <ele>1010.02</ele>
        <time>2015-06-06T15:54:56Z</time>
      </trkpt>
      <trkpt lat="45.52431" lon="6.34053">
        <ele>1014.15</ele>
        <time>2015-06-06T15:55:15Z</time>
      </trkpt>
      <trkpt lat="45.52403" lon="6.34017">
        <ele>1008.53</ele>
        <time>2015-06-06T15:55:45Z</time>
      </trkpt>
      <trkpt lat="45.52394" lon="6.33993">
        <ele>1008.44</ele>
        <time>2015-06-06T15:56:01Z</time>
      </trkpt>
      <trkpt lat="45.52382" lon="6.33973">
        <ele>1007.53</ele>
        <time>2015-06-06T15:56:17Z</time>
      </trkpt>
      <trkpt lat="45.52372" lon="6.33951">
        <ele>1005.08</ele>
        <time>2015-06-06T15:56:31Z</time>
      </trkpt>
      <trkpt lat="45.5236" lon="6.33929">
        <ele>1004.52</ele>
        <time>2015-06-06T15:56:44Z</time>
      </trkpt>
      <trkpt lat="45.52349" lon="6.33919">
        <ele>1010.53</ele>
        <time>2015-06-06T15:57:29Z</time>
      </trkpt>
      <trkpt lat="45.52352" lon="6.33914">
        <ele>1014.53</ele>
        <time>2015-06-06T15:58:13Z</time>
      </trkpt>
      <trkpt lat="45.52343" lon="6.33891">
        <ele>1009.67</ele>
        <time>2015-06-06T15:58:29Z</time>
      </trkpt>
      <trkpt lat="45.52333" lon="6.33869">
        <ele>1009.53</ele>
        <time>2015-06-06T15:58:44Z</time>
      </trkpt>
      <trkpt lat="45.52322" lon="6.33847">
        <ele>1007.84</ele>
        <time>2015-06-06T15:58:59Z</time>
      </trkpt>
      <trkpt lat="45.52311" lon="6.33824">
        <ele>1007.5</ele>
        <time>2015-06-06T15:59:14Z</time>
      </trkpt>
      <trkpt lat="45.52305" lon="6.338">
        <ele>1005.17</ele>
        <time>2015-06-06T15:59:28Z</time>
      </trkpt>
      <trkpt lat="45.52301" lon="6.33766">
        <ele>1003.1</ele>
        <time>2015-06-06T15:59:47Z</time>
      </trkpt>
      <trkpt lat="45.52298" lon="6.33739">
        <ele>996.55</ele>
        <time>2015-06-06T16:00:04Z</time>
      </trkpt>
      <trkpt lat="45.52297" lon="6.33711">
        <ele>993.91</ele>
        <time>2015-06-06T16:00:17Z</time>
      </trkpt>
      <trkpt lat="45.52295" lon="6.33684">
        <ele>994.4</ele>
        <time>2015-06-06T16:00:31Z</time>
      </trkpt>
      <trkpt lat="45.52291" lon="6.33659">
        <ele>990.27</ele>
        <time>2015-06-06T16:00:45Z</time>
      </trkpt>
      <trkpt lat="45.52284" lon="6.33634">
        <ele>994.51</ele>
        <time>2015-06-06T16:01:01Z</time>
      </trkpt>
      <trkpt lat="45.52276" lon="6.33609">
        <ele>991.83</ele>
        <time>2015-06-06T16:01:16Z</time>
      </trkpt>
      <trkpt lat="45.52271" lon="6.33584">
        <ele>990.53</ele>
        <time>2015-06-06T16:01:31Z</time>
      </trkpt>
      <trkpt lat="45.52264" lon="6.3356">
        <ele>989.56</ele>
        <time>2015-06-06T16:01:48Z</time>
      </trkpt>
      <trkpt lat="45.52254" lon="6.33538">
        <ele>986.03</ele>
        <time>2015-06-06T16:02:05Z</time>
      </trkpt>
      <trkpt lat="45.52243" lon="6.33516">
        <ele>983.52</ele>
        <time>2015-06-06T16:02:21Z</time>
      </trkpt>
      <trkpt lat="45.52227" lon="6.33502">
        <ele>982.78</ele>
        <time>2015-06-06T16:02:36Z</time>
      </trkpt>
      <trkpt lat="45.52214" lon="6.33483">
        <ele>983.3</ele>
        <time>2015-06-06T16:02:50Z</time>
      </trkpt>
      <trkpt lat="45.52207" lon="6.33459">
        <ele>979.17</ele>
        <time>2015-06-06T16:03:05Z</time>
      </trkpt>
      <trkpt lat="45.52206" lon="6.33432">
        <ele>976.63</ele>
        <time>2015-06-06T16:03:20Z</time>
      </trkpt>
      <trkpt lat="45.52207" lon="6.33405">
        <ele>984.88</ele>
        <time>2015-06-06T16:03:38Z</time>
      </trkpt>
      <trkpt lat="45.52218" lon="6.33386">
        <ele>974.91</ele>
        <time>2015-06-06T16:03:56Z</time>
      </trkpt>
      <trkpt lat="45.52232" lon="6.33369">
        <ele>975.75</ele>
        <time>2015-06-06T16:04:12Z</time>
      </trkpt>
      <trkpt lat="45.52246" lon="6.33352">
        <ele>974.04</ele>
        <time>2015-06-06T16:04:30Z</time>
      </trkpt>
    </trkseg>
  </trk>
</gpx>